<?xml version='1.0' encoding='UTF-8'?>
<gpx version="1.1" creator="https://www.komoot.de" xmlns="http://www.topografix.com/GPX/1/1" xmlns:xsi="http://www.w3.org/2001/XMLSchema-instance" xsi:schemaLocation="http://www.topografix.com/GPX/1/1 http://www.topografix.com/GPX/1/1/gpx.xsd">
  <metadata>
    <name>Ronde van Voorst 2026 (Lions) 75 km_definitief</name>
    <author>
      <link href="https://www.komoot.de">
        <text>komoot</text>
        <type>text/html</type>
      </link>
    </author>
  </metadata>
  <wpt lat="52.373037" lon="5.903446">
    <name>Tussendoorweg Nunspeet naar Woldberg (Veluwe)</name>
    <sym>Flag, Blue</sym>
  </wpt>
  <wpt lat="52.367832" lon="6.073414">
    <name>Pauzeplek catering</name>
    <sym>Restaurant</sym>
  </wpt>
  <trk>
    <name>Ronde van Voorst 2026 (Lions) 75 km_definitief</name>
    <type>racebike</type>
    <trkseg>
      <trkpt lat="52.225061" lon="6.102198">
        <ele>4.758133</ele>
        <time>2026-08-02T20:08:31.806Z</time>
      </trkpt>
      <trkpt lat="52.224918" lon="6.102930">
        <ele>4.758133</ele>
        <time>2026-08-02T20:08:41.457Z</time>
      </trkpt>
      <trkpt lat="52.225047" lon="6.102979">
        <ele>4.758133</ele>
        <time>2026-08-02T20:08:44.198Z</time>
      </trkpt>
      <trkpt lat="52.225671" lon="6.103301">
        <ele>4.801472</ele>
        <time>2026-08-02T20:08:57.914Z</time>
      </trkpt>
      <trkpt lat="52.225916" lon="6.103428">
        <ele>4.832574</ele>
        <time>2026-08-02T20:09:03.386Z</time>
      </trkpt>
      <trkpt lat="52.225951" lon="6.103446">
        <ele>4.837014</ele>
        <time>2026-08-02T20:09:04.144Z</time>
      </trkpt>
      <trkpt lat="52.225954" lon="6.103509">
        <ele>4.841697</ele>
        <time>2026-08-02T20:09:04.766Z</time>
      </trkpt>
      <trkpt lat="52.226140" lon="6.103980">
        <ele>4.883230</ele>
        <time>2026-08-02T20:09:10.062Z</time>
      </trkpt>
      <trkpt lat="52.226169" lon="6.104002">
        <ele>4.887099</ele>
        <time>2026-08-02T20:09:10.559Z</time>
      </trkpt>
      <trkpt lat="52.226191" lon="6.103999">
        <ele>4.889770</ele>
        <time>2026-08-02T20:09:11.002Z</time>
      </trkpt>
      <trkpt lat="52.226258" lon="6.103990">
        <ele>4.897904</ele>
        <time>2026-08-02T20:09:12.405Z</time>
      </trkpt>
      <trkpt lat="52.226276" lon="6.103986">
        <ele>4.900102</ele>
        <time>2026-08-02T20:09:12.791Z</time>
      </trkpt>
      <trkpt lat="52.226337" lon="6.103849">
        <ele>4.912654</ele>
        <time>2026-08-02T20:09:14.366Z</time>
      </trkpt>
      <trkpt lat="52.226408" lon="6.103690">
        <ele>4.927237</ele>
        <time>2026-08-02T20:09:16.205Z</time>
      </trkpt>
      <trkpt lat="52.226714" lon="6.103650">
        <ele>4.964379</ele>
        <time>2026-08-02T20:09:20.846Z</time>
      </trkpt>
      <trkpt lat="52.226800" lon="6.103631">
        <ele>4.974879</ele>
        <time>2026-08-02T20:09:22.136Z</time>
      </trkpt>
      <trkpt lat="52.226879" lon="6.103500">
        <ele>4.974383</ele>
        <time>2026-08-02T20:09:23.799Z</time>
      </trkpt>
      <trkpt lat="52.226928" lon="6.103494">
        <ele>4.973744</ele>
        <time>2026-08-02T20:09:24.522Z</time>
      </trkpt>
      <trkpt lat="52.226925" lon="6.103405">
        <ele>4.973033</ele>
        <time>2026-08-02T20:09:25.322Z</time>
      </trkpt>
      <trkpt lat="52.226836" lon="6.103009">
        <ele>4.969671</ele>
        <time>2026-08-02T20:09:29.086Z</time>
      </trkpt>
      <trkpt lat="52.226783" lon="6.101630">
        <ele>4.958658</ele>
        <time>2026-08-02T20:09:41.321Z</time>
      </trkpt>
      <trkpt lat="52.226702" lon="6.099756">
        <ele>5.035609</ele>
        <time>2026-08-02T20:09:58.806Z</time>
      </trkpt>
      <trkpt lat="52.226641" lon="6.098340">
        <ele>5.144318</ele>
        <time>2026-08-02T20:10:12.315Z</time>
      </trkpt>
      <trkpt lat="52.226650" lon="6.098188">
        <ele>5.156012</ele>
        <time>2026-08-02T20:10:13.752Z</time>
      </trkpt>
      <trkpt lat="52.226692" lon="6.098009">
        <ele>5.170692</ele>
        <time>2026-08-02T20:10:15.548Z</time>
      </trkpt>
      <trkpt lat="52.226815" lon="6.098050">
        <ele>5.192480</ele>
        <time>2026-08-02T20:10:17.456Z</time>
      </trkpt>
      <trkpt lat="52.226952" lon="6.098126">
        <ele>5.222599</ele>
        <time>2026-08-02T20:10:19.705Z</time>
      </trkpt>
      <trkpt lat="52.227124" lon="6.098118">
        <ele>5.258417</ele>
        <time>2026-08-02T20:10:22.388Z</time>
      </trkpt>
      <trkpt lat="52.227172" lon="6.098111">
        <ele>5.268448</ele>
        <time>2026-08-02T20:10:23.148Z</time>
      </trkpt>
      <trkpt lat="52.227340" lon="6.098087">
        <ele>5.303552</ele>
        <time>2026-08-02T20:10:25.777Z</time>
      </trkpt>
      <trkpt lat="52.227545" lon="6.098057">
        <ele>5.346395</ele>
        <time>2026-08-02T20:10:28.982Z</time>
      </trkpt>
      <trkpt lat="52.227725" lon="6.098031">
        <ele>5.384010</ele>
        <time>2026-08-02T20:10:31.785Z</time>
      </trkpt>
      <trkpt lat="52.227849" lon="6.098013">
        <ele>5.409923</ele>
        <time>2026-08-02T20:10:33.777Z</time>
      </trkpt>
      <trkpt lat="52.227882" lon="6.098008">
        <ele>5.416822</ele>
        <time>2026-08-02T20:10:34.310Z</time>
      </trkpt>
      <trkpt lat="52.227900" lon="6.098006">
        <ele>5.420577</ele>
        <time>2026-08-02T20:10:34.619Z</time>
      </trkpt>
      <trkpt lat="52.228189" lon="6.097965">
        <ele>5.480962</ele>
        <time>2026-08-02T20:10:39.253Z</time>
      </trkpt>
      <trkpt lat="52.228237" lon="6.097959">
        <ele>5.490982</ele>
        <time>2026-08-02T20:10:39.997Z</time>
      </trkpt>
      <trkpt lat="52.228280" lon="6.097952">
        <ele>5.499977</ele>
        <time>2026-08-02T20:10:40.647Z</time>
      </trkpt>
      <trkpt lat="52.228381" lon="6.097936">
        <ele>5.521100</ele>
        <time>2026-08-02T20:10:42.210Z</time>
      </trkpt>
      <trkpt lat="52.228484" lon="6.097920">
        <ele>5.542637</ele>
        <time>2026-08-02T20:10:43.805Z</time>
      </trkpt>
      <trkpt lat="52.228584" lon="6.097904">
        <ele>5.567998</ele>
        <time>2026-08-02T20:10:45.353Z</time>
      </trkpt>
      <trkpt lat="52.228676" lon="6.097890">
        <ele>5.594399</ele>
        <time>2026-08-02T20:10:46.780Z</time>
      </trkpt>
      <trkpt lat="52.228749" lon="6.097879">
        <ele>5.615346</ele>
        <time>2026-08-02T20:10:47.925Z</time>
      </trkpt>
      <trkpt lat="52.228837" lon="6.097865">
        <ele>5.640610</ele>
        <time>2026-08-02T20:10:49.327Z</time>
      </trkpt>
      <trkpt lat="52.228856" lon="6.097861">
        <ele>5.646084</ele>
        <time>2026-08-02T20:10:49.644Z</time>
      </trkpt>
      <trkpt lat="52.228890" lon="6.097850">
        <ele>5.655988</ele>
        <time>2026-08-02T20:10:50.184Z</time>
      </trkpt>
      <trkpt lat="52.229009" lon="6.097793">
        <ele>5.691423</ele>
        <time>2026-08-02T20:10:52.163Z</time>
      </trkpt>
      <trkpt lat="52.229194" lon="6.097627">
        <ele>5.751741</ele>
        <time>2026-08-02T20:10:55.501Z</time>
      </trkpt>
      <trkpt lat="52.229212" lon="6.097608">
        <ele>5.757866</ele>
        <time>2026-08-02T20:10:55.845Z</time>
      </trkpt>
      <trkpt lat="52.229331" lon="6.097479">
        <ele>5.798681</ele>
        <time>2026-08-02T20:10:58.105Z</time>
      </trkpt>
      <trkpt lat="52.229473" lon="6.097324">
        <ele>5.847488</ele>
        <time>2026-08-02T20:11:00.836Z</time>
      </trkpt>
      <trkpt lat="52.229604" lon="6.097182">
        <ele>5.892417</ele>
        <time>2026-08-02T20:11:03.413Z</time>
      </trkpt>
      <trkpt lat="52.229667" lon="6.097115">
        <ele>5.913901</ele>
        <time>2026-08-02T20:11:04.669Z</time>
      </trkpt>
      <trkpt lat="52.229796" lon="6.096953">
        <ele>5.960403</ele>
        <time>2026-08-02T20:11:07.315Z</time>
      </trkpt>
      <trkpt lat="52.229810" lon="6.096931">
        <ele>5.965955</ele>
        <time>2026-08-02T20:11:07.617Z</time>
      </trkpt>
      <trkpt lat="52.229939" lon="6.096736">
        <ele>6.016187</ele>
        <time>2026-08-02T20:11:10.406Z</time>
      </trkpt>
      <trkpt lat="52.229985" lon="6.096671">
        <ele>6.033570</ele>
        <time>2026-08-02T20:11:11.358Z</time>
      </trkpt>
      <trkpt lat="52.230067" lon="6.096727">
        <ele>6.058967</ele>
        <time>2026-08-02T20:11:12.747Z</time>
      </trkpt>
      <trkpt lat="52.230123" lon="6.096695">
        <ele>6.077765</ele>
        <time>2026-08-02T20:11:13.708Z</time>
      </trkpt>
      <trkpt lat="52.230159" lon="6.096622">
        <ele>6.097087</ele>
        <time>2026-08-02T20:11:14.634Z</time>
      </trkpt>
      <trkpt lat="52.230159" lon="6.096489">
        <ele>6.124507</ele>
        <time>2026-08-02T20:11:15.946Z</time>
      </trkpt>
      <trkpt lat="52.230215" lon="6.096444">
        <ele>6.145516</ele>
        <time>2026-08-02T20:11:16.980Z</time>
      </trkpt>
      <trkpt lat="52.230448" lon="6.096264">
        <ele>6.232280</ele>
        <time>2026-08-02T20:11:21.283Z</time>
      </trkpt>
      <trkpt lat="52.230876" lon="6.095787">
        <ele>6.406709</ele>
        <time>2026-08-02T20:11:29.833Z</time>
      </trkpt>
      <trkpt lat="52.230991" lon="6.095655">
        <ele>6.454026</ele>
        <time>2026-08-02T20:11:32.101Z</time>
      </trkpt>
      <trkpt lat="52.231277" lon="6.095329">
        <ele>6.571433</ele>
        <time>2026-08-02T20:11:37.635Z</time>
      </trkpt>
      <trkpt lat="52.231376" lon="6.095216">
        <ele>6.612092</ele>
        <time>2026-08-02T20:11:39.575Z</time>
      </trkpt>
      <trkpt lat="52.231444" lon="6.095140">
        <ele>6.639830</ele>
        <time>2026-08-02T20:11:40.862Z</time>
      </trkpt>
      <trkpt lat="52.231904" lon="6.094611">
        <ele>6.659094</ele>
        <time>2026-08-02T20:11:49.913Z</time>
      </trkpt>
      <trkpt lat="52.232150" lon="6.094287">
        <ele>6.651104</ele>
        <time>2026-08-02T20:11:54.658Z</time>
      </trkpt>
      <trkpt lat="52.232251" lon="6.094160">
        <ele>6.647881</ele>
        <time>2026-08-02T20:11:56.521Z</time>
      </trkpt>
      <trkpt lat="52.232322" lon="6.094224">
        <ele>6.645830</ele>
        <time>2026-08-02T20:11:57.645Z</time>
      </trkpt>
      <trkpt lat="52.232392" lon="6.094158">
        <ele>6.643786</ele>
        <time>2026-08-02T20:11:58.809Z</time>
      </trkpt>
      <trkpt lat="52.232402" lon="6.094070">
        <ele>6.642400</ele>
        <time>2026-08-02T20:11:59.569Z</time>
      </trkpt>
      <trkpt lat="52.232376" lon="6.093991">
        <ele>6.641012</ele>
        <time>2026-08-02T20:12:00.351Z</time>
      </trkpt>
      <trkpt lat="52.232461" lon="6.093823">
        <ele>6.637637</ele>
        <time>2026-08-02T20:12:02.221Z</time>
      </trkpt>
      <trkpt lat="52.232758" lon="6.093354">
        <ele>6.627191</ele>
        <time>2026-08-02T20:12:08.064Z</time>
      </trkpt>
      <trkpt lat="52.232776" lon="6.093326">
        <ele>6.626563</ele>
        <time>2026-08-02T20:12:08.403Z</time>
      </trkpt>
      <trkpt lat="52.233144" lon="6.092749">
        <ele>6.523720</ele>
        <time>2026-08-02T20:12:15.500Z</time>
      </trkpt>
      <trkpt lat="52.233314" lon="6.092519">
        <ele>6.475743</ele>
        <time>2026-08-02T20:12:18.491Z</time>
      </trkpt>
      <trkpt lat="52.233516" lon="6.092401">
        <ele>6.429121</ele>
        <time>2026-08-02T20:12:21.425Z</time>
      </trkpt>
      <trkpt lat="52.233737" lon="6.092391">
        <ele>6.381077</ele>
        <time>2026-08-02T20:12:24.501Z</time>
      </trkpt>
      <trkpt lat="52.234060" lon="6.092411">
        <ele>6.310835</ele>
        <time>2026-08-02T20:12:29.119Z</time>
      </trkpt>
      <trkpt lat="52.234168" lon="6.092364">
        <ele>6.286546</ele>
        <time>2026-08-02T20:12:30.730Z</time>
      </trkpt>
      <trkpt lat="52.235021" lon="6.091557">
        <ele>6.224210</ele>
        <time>2026-08-02T20:12:44.943Z</time>
      </trkpt>
      <trkpt lat="52.235351" lon="6.091238">
        <ele>6.218856</ele>
        <time>2026-08-02T20:12:50.630Z</time>
      </trkpt>
      <trkpt lat="52.235461" lon="6.091140">
        <ele>6.217106</ele>
        <time>2026-08-02T20:12:52.505Z</time>
      </trkpt>
      <trkpt lat="52.235871" lon="6.090773">
        <ele>6.210578</ele>
        <time>2026-08-02T20:12:59.429Z</time>
      </trkpt>
      <trkpt lat="52.235962" lon="6.090730">
        <ele>6.212827</ele>
        <time>2026-08-02T20:13:00.879Z</time>
      </trkpt>
      <trkpt lat="52.236028" lon="6.090748">
        <ele>6.224190</ele>
        <time>2026-08-02T20:13:01.879Z</time>
      </trkpt>
      <trkpt lat="52.236082" lon="6.090774">
        <ele>6.233751</ele>
        <time>2026-08-02T20:13:02.765Z</time>
      </trkpt>
      <trkpt lat="52.236116" lon="6.090663">
        <ele>6.246658</ele>
        <time>2026-08-02T20:13:03.943Z</time>
      </trkpt>
      <trkpt lat="52.236193" lon="6.090549">
        <ele>6.264309</ele>
        <time>2026-08-02T20:13:05.581Z</time>
      </trkpt>
      <trkpt lat="52.236263" lon="6.090499">
        <ele>6.277283</ele>
        <time>2026-08-02T20:13:06.772Z</time>
      </trkpt>
      <trkpt lat="52.236524" lon="6.090324">
        <ele>6.325197</ele>
        <time>2026-08-02T20:13:11.231Z</time>
      </trkpt>
      <trkpt lat="52.236728" lon="6.090170">
        <ele>6.363363</ele>
        <time>2026-08-02T20:13:14.839Z</time>
      </trkpt>
      <trkpt lat="52.236781" lon="6.090054">
        <ele>6.378414</ele>
        <time>2026-08-02T20:13:16.246Z</time>
      </trkpt>
      <trkpt lat="52.236773" lon="6.089658">
        <ele>6.419619</ele>
        <time>2026-08-02T20:13:20.200Z</time>
      </trkpt>
      <trkpt lat="52.236795" lon="6.089471">
        <ele>6.439422</ele>
        <time>2026-08-02T20:13:22.060Z</time>
      </trkpt>
      <trkpt lat="52.237574" lon="6.086714">
        <ele>6.644538</ele>
        <time>2026-08-02T20:13:49.965Z</time>
      </trkpt>
      <trkpt lat="52.237629" lon="6.086528">
        <ele>6.656124</ele>
        <time>2026-08-02T20:13:51.946Z</time>
      </trkpt>
      <trkpt lat="52.237896" lon="6.086347">
        <ele>6.682441</ele>
        <time>2026-08-02T20:13:56.515Z</time>
      </trkpt>
      <trkpt lat="52.238008" lon="6.086346">
        <ele>6.692118</ele>
        <time>2026-08-02T20:13:58.258Z</time>
      </trkpt>
      <trkpt lat="52.238109" lon="6.086460">
        <ele>6.702725</ele>
        <time>2026-08-02T20:14:00.168Z</time>
      </trkpt>
      <trkpt lat="52.238161" lon="6.086435">
        <ele>6.707409</ele>
        <time>2026-08-02T20:14:00.988Z</time>
      </trkpt>
      <trkpt lat="52.238216" lon="6.086391">
        <ele>6.712700</ele>
        <time>2026-08-02T20:14:01.938Z</time>
      </trkpt>
      <trkpt lat="52.238251" lon="6.086334">
        <ele>6.716971</ele>
        <time>2026-08-02T20:14:02.688Z</time>
      </trkpt>
      <trkpt lat="52.238254" lon="6.086195">
        <ele>6.724330</ele>
        <time>2026-08-02T20:14:03.984Z</time>
      </trkpt>
      <trkpt lat="52.238332" lon="6.086013">
        <ele>6.736083</ele>
        <time>2026-08-02T20:14:06.018Z</time>
      </trkpt>
      <trkpt lat="52.238473" lon="6.085813">
        <ele>6.752219</ele>
        <time>2026-08-02T20:14:08.793Z</time>
      </trkpt>
      <trkpt lat="52.238510" lon="6.085618">
        <ele>6.763020</ele>
        <time>2026-08-02T20:14:10.728Z</time>
      </trkpt>
      <trkpt lat="52.238546" lon="6.085527">
        <ele>6.768752</ele>
        <time>2026-08-02T20:14:11.780Z</time>
      </trkpt>
      <trkpt lat="52.238586" lon="6.085370">
        <ele>6.777749</ele>
        <time>2026-08-02T20:14:13.425Z</time>
      </trkpt>
      <trkpt lat="52.238750" lon="6.084252">
        <ele>6.819770</ele>
        <time>2026-08-02T20:14:24.386Z</time>
      </trkpt>
      <trkpt lat="52.238940" lon="6.083290">
        <ele>6.582071</ele>
        <time>2026-08-02T20:14:32.691Z</time>
      </trkpt>
      <trkpt lat="52.239178" lon="6.082368">
        <ele>6.346779</ele>
        <time>2026-08-02T20:14:40.784Z</time>
      </trkpt>
      <trkpt lat="52.239627" lon="6.080925">
        <ele>5.957681</ele>
        <time>2026-08-02T20:14:53.958Z</time>
      </trkpt>
      <trkpt lat="52.239847" lon="6.080487">
        <ele>5.818134</ele>
        <time>2026-08-02T20:14:58.619Z</time>
      </trkpt>
      <trkpt lat="52.240001" lon="6.080326">
        <ele>5.744577</ele>
        <time>2026-08-02T20:15:01.080Z</time>
      </trkpt>
      <trkpt lat="52.240230" lon="6.080300">
        <ele>5.652235</ele>
        <time>2026-08-02T20:15:04.188Z</time>
      </trkpt>
      <trkpt lat="52.240340" lon="6.080330">
        <ele>5.607372</ele>
        <time>2026-08-02T20:15:05.717Z</time>
      </trkpt>
      <trkpt lat="52.241190" lon="6.080720">
        <ele>5.339260</ele>
        <time>2026-08-02T20:15:17.954Z</time>
      </trkpt>
      <trkpt lat="52.241777" lon="6.080865">
        <ele>5.223703</ele>
        <time>2026-08-02T20:15:26.229Z</time>
      </trkpt>
      <trkpt lat="52.243630" lon="6.076930">
        <ele>4.803795</ele>
        <time>2026-08-02T20:16:09.521Z</time>
      </trkpt>
      <trkpt lat="52.243680" lon="6.076710">
        <ele>4.808411</ele>
        <time>2026-08-02T20:16:11.763Z</time>
      </trkpt>
      <trkpt lat="52.243768" lon="6.075945">
        <ele>4.823721</ele>
        <time>2026-08-02T20:16:19.349Z</time>
      </trkpt>
      <trkpt lat="52.243936" lon="6.074471">
        <ele>4.803761</ele>
        <time>2026-08-02T20:16:33.265Z</time>
      </trkpt>
      <trkpt lat="52.243991" lon="6.074060">
        <ele>4.746702</ele>
        <time>2026-08-02T20:16:36.913Z</time>
      </trkpt>
      <trkpt lat="52.244158" lon="6.073538">
        <ele>4.666823</ele>
        <time>2026-08-02T20:16:41.895Z</time>
      </trkpt>
      <trkpt lat="52.244209" lon="6.073245">
        <ele>4.625510</ele>
        <time>2026-08-02T20:16:44.439Z</time>
      </trkpt>
      <trkpt lat="52.244200" lon="6.073079">
        <ele>4.602907</ele>
        <time>2026-08-02T20:16:45.831Z</time>
      </trkpt>
      <trkpt lat="52.243963" lon="6.071570">
        <ele>4.371539</ele>
        <time>2026-08-02T20:16:58.956Z</time>
      </trkpt>
      <trkpt lat="52.243970" lon="6.071332">
        <ele>4.327821</ele>
        <time>2026-08-02T20:17:01.030Z</time>
      </trkpt>
      <trkpt lat="52.244075" lon="6.070940">
        <ele>4.249317</ele>
        <time>2026-08-02T20:17:04.781Z</time>
      </trkpt>
      <trkpt lat="52.245878" lon="6.067222">
        <ele>3.303820</ele>
        <time>2026-08-02T20:17:44.549Z</time>
      </trkpt>
      <trkpt lat="52.246276" lon="6.066398">
        <ele>3.250003</ele>
        <time>2026-08-02T20:17:53.207Z</time>
      </trkpt>
      <trkpt lat="52.246367" lon="6.066160">
        <ele>3.237671</ele>
        <time>2026-08-02T20:17:55.577Z</time>
      </trkpt>
      <trkpt lat="52.246484" lon="6.065716">
        <ele>3.216428</ele>
        <time>2026-08-02T20:17:59.765Z</time>
      </trkpt>
      <trkpt lat="52.246509" lon="6.065588">
        <ele>3.210524</ele>
        <time>2026-08-02T20:18:00.986Z</time>
      </trkpt>
      <trkpt lat="52.246586" lon="6.065304">
        <ele>3.196874</ele>
        <time>2026-08-02T20:18:03.783Z</time>
      </trkpt>
      <trkpt lat="52.247196" lon="6.062215">
        <ele>3.787751</ele>
        <time>2026-08-02T20:18:36.913Z</time>
      </trkpt>
      <trkpt lat="52.247247" lon="6.062059">
        <ele>3.831454</ele>
        <time>2026-08-02T20:18:38.666Z</time>
      </trkpt>
      <trkpt lat="52.247334" lon="6.061928">
        <ele>3.879216</ele>
        <time>2026-08-02T20:18:40.572Z</time>
      </trkpt>
      <trkpt lat="52.247423" lon="6.061864">
        <ele>3.894975</ele>
        <time>2026-08-02T20:18:42.112Z</time>
      </trkpt>
      <trkpt lat="52.249486" lon="6.060857">
        <ele>3.975224</ele>
        <time>2026-08-02T20:19:14.323Z</time>
      </trkpt>
      <trkpt lat="52.248791" lon="6.058022">
        <ele>3.861802</ele>
        <time>2026-08-02T20:19:41.430Z</time>
      </trkpt>
      <trkpt lat="52.248644" lon="6.057427">
        <ele>3.826982</ele>
        <time>2026-08-02T20:19:46.636Z</time>
      </trkpt>
      <trkpt lat="52.248476" lon="6.056741">
        <ele>3.786886</ele>
        <time>2026-08-02T20:19:52.811Z</time>
      </trkpt>
      <trkpt lat="52.247786" lon="6.053942">
        <ele>4.274643</ele>
        <time>2026-08-02T20:20:23.335Z</time>
      </trkpt>
      <trkpt lat="52.248072" lon="6.053230">
        <ele>4.414848</ele>
        <time>2026-08-02T20:20:32.081Z</time>
      </trkpt>
      <trkpt lat="52.248243" lon="6.052664">
        <ele>4.357374</ele>
        <time>2026-08-02T20:20:38.065Z</time>
      </trkpt>
      <trkpt lat="52.248844" lon="6.049409">
        <ele>4.073088</ele>
        <time>2026-08-02T20:21:06.638Z</time>
      </trkpt>
      <trkpt lat="52.249320" lon="6.046784">
        <ele>3.881690</ele>
        <time>2026-08-02T20:21:31.666Z</time>
      </trkpt>
      <trkpt lat="52.249455" lon="6.045791">
        <ele>3.812592</ele>
        <time>2026-08-02T20:21:40.313Z</time>
      </trkpt>
      <trkpt lat="52.249510" lon="6.045092">
        <ele>3.764719</ele>
        <time>2026-08-02T20:21:46.385Z</time>
      </trkpt>
      <trkpt lat="52.249554" lon="6.043984">
        <ele>3.880846</ele>
        <time>2026-08-02T20:21:56.424Z</time>
      </trkpt>
      <trkpt lat="52.249608" lon="6.043514">
        <ele>3.943041</ele>
        <time>2026-08-02T20:22:01.012Z</time>
      </trkpt>
      <trkpt lat="52.249795" lon="6.042753">
        <ele>4.049691</ele>
        <time>2026-08-02T20:22:09.419Z</time>
      </trkpt>
      <trkpt lat="52.250079" lon="6.041777">
        <ele>4.159760</ele>
        <time>2026-08-02T20:22:20.338Z</time>
      </trkpt>
      <trkpt lat="52.251491" lon="6.036734">
        <ele>4.216619</ele>
        <time>2026-08-02T20:23:10.495Z</time>
      </trkpt>
      <trkpt lat="52.252240" lon="6.037328">
        <ele>4.029049</ele>
        <time>2026-08-02T20:23:21.885Z</time>
      </trkpt>
      <trkpt lat="52.252900" lon="6.037851">
        <ele>3.863793</ele>
        <time>2026-08-02T20:23:32.061Z</time>
      </trkpt>
      <trkpt lat="52.253091" lon="6.037993">
        <ele>3.819203</ele>
        <time>2026-08-02T20:23:35.093Z</time>
      </trkpt>
      <trkpt lat="52.254251" lon="6.038897">
        <ele>3.667337</ele>
        <time>2026-08-02T20:23:53.802Z</time>
      </trkpt>
      <trkpt lat="52.255234" lon="6.039644">
        <ele>3.649831</ele>
        <time>2026-08-02T20:24:09.198Z</time>
      </trkpt>
      <trkpt lat="52.255511" lon="6.039799">
        <ele>3.669585</ele>
        <time>2026-08-02T20:24:13.502Z</time>
      </trkpt>
      <trkpt lat="52.256145" lon="6.039873">
        <ele>3.712466</ele>
        <time>2026-08-02T20:24:23.298Z</time>
      </trkpt>
      <trkpt lat="52.257431" lon="6.040097">
        <ele>4.022594</ele>
        <time>2026-08-02T20:24:44.515Z</time>
      </trkpt>
      <trkpt lat="52.258126" lon="6.040271">
        <ele>4.223833</ele>
        <time>2026-08-02T20:24:55.652Z</time>
      </trkpt>
      <trkpt lat="52.258117" lon="6.040220">
        <ele>4.233131</ele>
        <time>2026-08-02T20:24:56.326Z</time>
      </trkpt>
      <trkpt lat="52.258090" lon="6.040065">
        <ele>4.243717</ele>
        <time>2026-08-02T20:24:58.381Z</time>
      </trkpt>
      <trkpt lat="52.257909" lon="6.038874">
        <ele>4.215420</ele>
        <time>2026-08-02T20:25:13.784Z</time>
      </trkpt>
      <trkpt lat="52.257637" lon="6.036323">
        <ele>4.145397</ele>
        <time>2026-08-02T20:25:45.020Z</time>
      </trkpt>
      <trkpt lat="52.257661" lon="6.035880">
        <ele>4.130399</ele>
        <time>2026-08-02T20:25:50.417Z</time>
      </trkpt>
      <trkpt lat="52.257795" lon="6.035305">
        <ele>4.109650</ele>
        <time>2026-08-02T20:25:57.894Z</time>
      </trkpt>
      <trkpt lat="52.258073" lon="6.034443">
        <ele>4.080602</ele>
        <time>2026-08-02T20:26:09.920Z</time>
      </trkpt>
      <trkpt lat="52.258152" lon="6.034212">
        <ele>4.087669</ele>
        <time>2026-08-02T20:26:12.346Z</time>
      </trkpt>
      <trkpt lat="52.258626" lon="6.031875">
        <ele>4.153424</ele>
        <time>2026-08-02T20:26:34.988Z</time>
      </trkpt>
      <trkpt lat="52.258682" lon="6.031331">
        <ele>4.200521</ele>
        <time>2026-08-02T20:26:40.168Z</time>
      </trkpt>
      <trkpt lat="52.258834" lon="6.031096">
        <ele>4.237124</ele>
        <time>2026-08-02T20:26:43.399Z</time>
      </trkpt>
      <trkpt lat="52.259756" lon="6.031330">
        <ele>4.400322</ele>
        <time>2026-08-02T20:26:57.963Z</time>
      </trkpt>
      <trkpt lat="52.260021" lon="6.031319">
        <ele>4.446687</ele>
        <time>2026-08-02T20:27:02.141Z</time>
      </trkpt>
      <trkpt lat="52.260161" lon="6.031212">
        <ele>4.472324</ele>
        <time>2026-08-02T20:27:04.587Z</time>
      </trkpt>
      <trkpt lat="52.260274" lon="6.031049">
        <ele>4.477349</ele>
        <time>2026-08-02T20:27:06.930Z</time>
      </trkpt>
      <trkpt lat="52.260768" lon="6.030178">
        <ele>4.501576</ele>
        <time>2026-08-02T20:27:17.937Z</time>
      </trkpt>
      <trkpt lat="52.261313" lon="6.029109">
        <ele>4.529962</ele>
        <time>2026-08-02T20:27:30.455Z</time>
      </trkpt>
      <trkpt lat="52.261562" lon="6.028766">
        <ele>4.538651</ele>
        <time>2026-08-02T20:27:35.250Z</time>
      </trkpt>
      <trkpt lat="52.262593" lon="6.027618">
        <ele>4.570076</ele>
        <time>2026-08-02T20:27:53.942Z</time>
      </trkpt>
      <trkpt lat="52.262680" lon="6.027590">
        <ele>4.572310</ele>
        <time>2026-08-02T20:27:55.284Z</time>
      </trkpt>
      <trkpt lat="52.262790" lon="6.027610">
        <ele>4.575098</ele>
        <time>2026-08-02T20:27:56.929Z</time>
      </trkpt>
      <trkpt lat="52.263350" lon="6.027830">
        <ele>4.513597</ele>
        <time>2026-08-02T20:28:05.326Z</time>
      </trkpt>
      <trkpt lat="52.263650" lon="6.027890">
        <ele>4.474360</ele>
        <time>2026-08-02T20:28:09.587Z</time>
      </trkpt>
      <trkpt lat="52.263841" lon="6.027882">
        <ele>4.449556</ele>
        <time>2026-08-02T20:28:12.314Z</time>
      </trkpt>
      <trkpt lat="52.264030" lon="6.027850">
        <ele>4.424888</ele>
        <time>2026-08-02T20:28:15.057Z</time>
      </trkpt>
      <trkpt lat="52.264669" lon="6.027493">
        <ele>4.328563</ele>
        <time>2026-08-02T20:28:24.715Z</time>
      </trkpt>
      <trkpt lat="52.264960" lon="6.027330">
        <ele>4.235735</ele>
        <time>2026-08-02T20:28:29.036Z</time>
      </trkpt>
      <trkpt lat="52.265170" lon="6.027140">
        <ele>4.163300</ele>
        <time>2026-08-02T20:28:32.399Z</time>
      </trkpt>
      <trkpt lat="52.265230" lon="6.027010">
        <ele>4.133230</ele>
        <time>2026-08-02T20:28:33.795Z</time>
      </trkpt>
      <trkpt lat="52.265838" lon="6.025014">
        <ele>3.733569</ele>
        <time>2026-08-02T20:28:52.386Z</time>
      </trkpt>
      <trkpt lat="52.266072" lon="6.024091">
        <ele>3.577115</ele>
        <time>2026-08-02T20:29:00.674Z</time>
      </trkpt>
      <trkpt lat="52.266224" lon="6.023378">
        <ele>3.458880</ele>
        <time>2026-08-02T20:29:07.085Z</time>
      </trkpt>
      <trkpt lat="52.266236" lon="6.023091">
        <ele>3.413831</ele>
        <time>2026-08-02T20:29:09.561Z</time>
      </trkpt>
      <trkpt lat="52.266229" lon="6.019400">
        <ele>3.342015</ele>
        <time>2026-08-02T20:29:43.104Z</time>
      </trkpt>
      <trkpt lat="52.266177" lon="6.017559">
        <ele>3.446171</ele>
        <time>2026-08-02T20:30:00.368Z</time>
      </trkpt>
      <trkpt lat="52.266206" lon="6.017395">
        <ele>3.455819</ele>
        <time>2026-08-02T20:30:01.968Z</time>
      </trkpt>
      <trkpt lat="52.266514" lon="6.016551">
        <ele>3.501300</ele>
        <time>2026-08-02T20:30:11.029Z</time>
      </trkpt>
      <trkpt lat="52.266586" lon="6.016271">
        <ele>3.509555</ele>
        <time>2026-08-02T20:30:13.775Z</time>
      </trkpt>
      <trkpt lat="52.266705" lon="6.015271">
        <ele>3.537242</ele>
        <time>2026-08-02T20:30:23.064Z</time>
      </trkpt>
      <trkpt lat="52.266760" lon="6.014542">
        <ele>3.557205</ele>
        <time>2026-08-02T20:30:29.728Z</time>
      </trkpt>
      <trkpt lat="52.266800" lon="6.013559">
        <ele>3.613377</ele>
        <time>2026-08-02T20:30:38.912Z</time>
      </trkpt>
      <trkpt lat="52.266864" lon="6.012687">
        <ele>3.695158</ele>
        <time>2026-08-02T20:30:47.369Z</time>
      </trkpt>
      <trkpt lat="52.267153" lon="6.010867">
        <ele>3.863513</ele>
        <time>2026-08-02T20:31:05.035Z</time>
      </trkpt>
      <trkpt lat="52.267210" lon="6.010260">
        <ele>3.905117</ele>
        <time>2026-08-02T20:31:10.653Z</time>
      </trkpt>
      <trkpt lat="52.267240" lon="6.009620">
        <ele>3.948602</ele>
        <time>2026-08-02T20:31:16.597Z</time>
      </trkpt>
      <trkpt lat="52.267240" lon="6.008830">
        <ele>4.002123</ele>
        <time>2026-08-02T20:31:23.958Z</time>
      </trkpt>
      <trkpt lat="52.267210" lon="6.008200">
        <ele>4.045203</ele>
        <time>2026-08-02T20:31:29.965Z</time>
      </trkpt>
      <trkpt lat="52.267150" lon="6.007570">
        <ele>4.130245</ele>
        <time>2026-08-02T20:31:36.029Z</time>
      </trkpt>
      <trkpt lat="52.267072" lon="6.007033">
        <ele>4.203861</ele>
        <time>2026-08-02T20:31:41.322Z</time>
      </trkpt>
      <trkpt lat="52.266836" lon="6.005839">
        <ele>4.371220</ele>
        <time>2026-08-02T20:31:53.497Z</time>
      </trkpt>
      <trkpt lat="52.266615" lon="6.004795">
        <ele>4.513980</ele>
        <time>2026-08-02T20:32:03.953Z</time>
      </trkpt>
      <trkpt lat="52.266502" lon="6.003971">
        <ele>4.620304</ele>
        <time>2026-08-02T20:32:12.263Z</time>
      </trkpt>
      <trkpt lat="52.266488" lon="6.003259">
        <ele>4.710000</ele>
        <time>2026-08-02T20:32:19.214Z</time>
      </trkpt>
      <trkpt lat="52.266520" lon="6.002460">
        <ele>4.806974</ele>
        <time>2026-08-02T20:32:26.720Z</time>
      </trkpt>
      <trkpt lat="52.266600" lon="6.001370">
        <ele>4.815321</ele>
        <time>2026-08-02T20:32:36.945Z</time>
      </trkpt>
      <trkpt lat="52.266680" lon="6.000400">
        <ele>4.822763</ele>
        <time>2026-08-02T20:32:45.860Z</time>
      </trkpt>
      <trkpt lat="52.266690" lon="5.999784">
        <ele>4.827449</ele>
        <time>2026-08-02T20:32:51.390Z</time>
      </trkpt>
      <trkpt lat="52.266653" lon="5.999285">
        <ele>4.813835</ele>
        <time>2026-08-02T20:32:55.747Z</time>
      </trkpt>
      <trkpt lat="52.266508" lon="5.998256">
        <ele>4.758142</ele>
        <time>2026-08-02T20:33:04.998Z</time>
      </trkpt>
      <trkpt lat="52.266385" lon="5.997533">
        <ele>4.718563</ele>
        <time>2026-08-02T20:33:11.642Z</time>
      </trkpt>
      <trkpt lat="52.266252" lon="5.996571">
        <ele>4.701513</ele>
        <time>2026-08-02T20:33:20.368Z</time>
      </trkpt>
      <trkpt lat="52.266151" lon="5.995634">
        <ele>4.884799</ele>
        <time>2026-08-02T20:33:29.159Z</time>
      </trkpt>
      <trkpt lat="52.265680" lon="5.990915">
        <ele>6.148877</ele>
        <time>2026-08-02T20:34:18.439Z</time>
      </trkpt>
      <trkpt lat="52.265668" lon="5.990549">
        <ele>6.246204</ele>
        <time>2026-08-02T20:34:22.427Z</time>
      </trkpt>
      <trkpt lat="52.265724" lon="5.990185">
        <ele>6.345746</ele>
        <time>2026-08-02T20:34:26.421Z</time>
      </trkpt>
      <trkpt lat="52.265870" lon="5.989790">
        <ele>6.468130</ele>
        <time>2026-08-02T20:34:31.240Z</time>
      </trkpt>
      <trkpt lat="52.265897" lon="5.989481">
        <ele>6.550912</ele>
        <time>2026-08-02T20:34:34.419Z</time>
      </trkpt>
      <trkpt lat="52.265889" lon="5.989163">
        <ele>6.635322</ele>
        <time>2026-08-02T20:34:37.629Z</time>
      </trkpt>
      <trkpt lat="52.265760" lon="5.988610">
        <ele>6.792278</ele>
        <time>2026-08-02T20:34:43.544Z</time>
      </trkpt>
      <trkpt lat="52.265394" lon="5.987789">
        <ele>6.986999</ele>
        <time>2026-08-02T20:34:52.937Z</time>
      </trkpt>
      <trkpt lat="52.264632" lon="5.986299">
        <ele>7.211784</ele>
        <time>2026-08-02T20:35:11.174Z</time>
      </trkpt>
      <trkpt lat="52.264604" lon="5.986234">
        <ele>7.220986</ele>
        <time>2026-08-02T20:35:11.969Z</time>
      </trkpt>
      <trkpt lat="52.264595" lon="5.986099">
        <ele>7.236707</ele>
        <time>2026-08-02T20:35:13.325Z</time>
      </trkpt>
      <trkpt lat="52.264446" lon="5.986064">
        <ele>7.265181</ele>
        <time>2026-08-02T20:35:15.803Z</time>
      </trkpt>
      <trkpt lat="52.264454" lon="5.985984">
        <ele>7.283581</ele>
        <time>2026-08-02T20:35:16.616Z</time>
      </trkpt>
      <trkpt lat="52.264487" lon="5.985645">
        <ele>7.392524</ele>
        <time>2026-08-02T20:35:20.100Z</time>
      </trkpt>
      <trkpt lat="52.264489" lon="5.985633">
        <ele>7.396471</ele>
        <time>2026-08-02T20:35:20.226Z</time>
      </trkpt>
      <trkpt lat="52.264512" lon="5.985494">
        <ele>7.442170</ele>
        <time>2026-08-02T20:35:21.699Z</time>
      </trkpt>
      <trkpt lat="52.264543" lon="5.985316">
        <ele>7.500906</ele>
        <time>2026-08-02T20:35:23.604Z</time>
      </trkpt>
      <trkpt lat="52.264561" lon="5.985216">
        <ele>7.533988</ele>
        <time>2026-08-02T20:35:24.674Z</time>
      </trkpt>
      <trkpt lat="52.264585" lon="5.985109">
        <ele>7.570156</ele>
        <time>2026-08-02T20:35:25.864Z</time>
      </trkpt>
      <trkpt lat="52.264602" lon="5.985047">
        <ele>7.591717</ele>
        <time>2026-08-02T20:35:26.572Z</time>
      </trkpt>
      <trkpt lat="52.264809" lon="5.984473">
        <ele>7.803165</ele>
        <time>2026-08-02T20:35:33.515Z</time>
      </trkpt>
      <trkpt lat="52.264915" lon="5.984078">
        <ele>7.940049</ele>
        <time>2026-08-02T20:35:37.975Z</time>
      </trkpt>
      <trkpt lat="52.265120" lon="5.983342">
        <ele>8.196689</ele>
        <time>2026-08-02T20:35:46.464Z</time>
      </trkpt>
      <trkpt lat="52.265171" lon="5.982952">
        <ele>8.334064</ele>
        <time>2026-08-02T20:35:50.680Z</time>
      </trkpt>
      <trkpt lat="52.265078" lon="5.982254">
        <ele>8.581003</ele>
        <time>2026-08-02T20:35:58.271Z</time>
      </trkpt>
      <trkpt lat="52.264897" lon="5.981496">
        <ele>8.862270</ele>
        <time>2026-08-02T20:36:06.815Z</time>
      </trkpt>
      <trkpt lat="52.264728" lon="5.980845">
        <ele>9.106720</ele>
        <time>2026-08-02T20:36:14.122Z</time>
      </trkpt>
      <trkpt lat="52.264613" lon="5.980297">
        <ele>9.294501</ele>
        <time>2026-08-02T20:36:20.112Z</time>
      </trkpt>
      <trkpt lat="52.264590" lon="5.979970">
        <ele>9.392315</ele>
        <time>2026-08-02T20:36:23.523Z</time>
      </trkpt>
      <trkpt lat="52.264594" lon="5.979706">
        <ele>9.470791</ele>
        <time>2026-08-02T20:36:26.255Z</time>
      </trkpt>
      <trkpt lat="52.264685" lon="5.979098">
        <ele>9.656793</ele>
        <time>2026-08-02T20:36:32.676Z</time>
      </trkpt>
      <trkpt lat="52.264698" lon="5.978834">
        <ele>9.735498</ele>
        <time>2026-08-02T20:36:35.379Z</time>
      </trkpt>
      <trkpt lat="52.264595" lon="5.976799">
        <ele>10.272486</ele>
        <time>2026-08-02T20:36:56.068Z</time>
      </trkpt>
      <trkpt lat="52.264594" lon="5.975559">
        <ele>10.538445</ele>
        <time>2026-08-02T20:37:08.535Z</time>
      </trkpt>
      <trkpt lat="52.264607" lon="5.974232">
        <ele>10.802905</ele>
        <time>2026-08-02T20:37:21.370Z</time>
      </trkpt>
      <trkpt lat="52.264620" lon="5.972145">
        <ele>11.161366</ele>
        <time>2026-08-02T20:37:41.573Z</time>
      </trkpt>
      <trkpt lat="52.264543" lon="5.969906">
        <ele>11.725604</ele>
        <time>2026-08-02T20:38:04.261Z</time>
      </trkpt>
      <trkpt lat="52.264562" lon="5.968170">
        <ele>12.162127</ele>
        <time>2026-08-02T20:38:22.170Z</time>
      </trkpt>
      <trkpt lat="52.264591" lon="5.967887">
        <ele>12.226587</ele>
        <time>2026-08-02T20:38:25.075Z</time>
      </trkpt>
      <trkpt lat="52.264820" lon="5.967270">
        <ele>12.388690</ele>
        <time>2026-08-02T20:38:32.252Z</time>
      </trkpt>
      <trkpt lat="52.264859" lon="5.967178">
        <ele>12.413831</ele>
        <time>2026-08-02T20:38:33.348Z</time>
      </trkpt>
      <trkpt lat="52.264887" lon="5.966988">
        <ele>12.457734</ele>
        <time>2026-08-02T20:38:35.238Z</time>
      </trkpt>
      <trkpt lat="52.265053" lon="5.965626">
        <ele>12.817132</ele>
        <time>2026-08-02T20:38:48.694Z</time>
      </trkpt>
      <trkpt lat="52.265120" lon="5.964960">
        <ele>13.043803</ele>
        <time>2026-08-02T20:38:55.498Z</time>
      </trkpt>
      <trkpt lat="52.265682" lon="5.961456">
        <ele>14.233814</ele>
        <time>2026-08-02T20:39:34.438Z</time>
      </trkpt>
      <trkpt lat="52.265745" lon="5.960985">
        <ele>14.388567</ele>
        <time>2026-08-02T20:39:39.342Z</time>
      </trkpt>
      <trkpt lat="52.265730" lon="5.960121">
        <ele>14.624580</ele>
        <time>2026-08-02T20:39:47.769Z</time>
      </trkpt>
      <trkpt lat="52.265570" lon="5.958140">
        <ele>14.835579</ele>
        <time>2026-08-02T20:40:06.258Z</time>
      </trkpt>
      <trkpt lat="52.265335" lon="5.956046">
        <ele>15.307940</ele>
        <time>2026-08-02T20:40:27.028Z</time>
      </trkpt>
      <trkpt lat="52.265323" lon="5.955944">
        <ele>15.337535</ele>
        <time>2026-08-02T20:40:28.097Z</time>
      </trkpt>
      <trkpt lat="52.265316" lon="5.955889">
        <ele>15.353541</ele>
        <time>2026-08-02T20:40:28.669Z</time>
      </trkpt>
      <trkpt lat="52.264718" lon="5.951173">
        <ele>17.014488</ele>
        <time>2026-08-02T20:41:19.971Z</time>
      </trkpt>
      <trkpt lat="52.264648" lon="5.950617">
        <ele>17.152184</ele>
        <time>2026-08-02T20:41:25.900Z</time>
      </trkpt>
      <trkpt lat="52.264215" lon="5.946420">
        <ele>17.984167</ele>
        <time>2026-08-02T20:42:07.511Z</time>
      </trkpt>
      <trkpt lat="52.263993" lon="5.944257">
        <ele>18.240859</ele>
        <time>2026-08-02T20:42:28.309Z</time>
      </trkpt>
      <trkpt lat="52.263976" lon="5.944055">
        <ele>18.261773</ele>
        <time>2026-08-02T20:42:30.221Z</time>
      </trkpt>
      <trkpt lat="52.265346" lon="5.942115">
        <ele>18.617563</ele>
        <time>2026-08-02T20:42:57.987Z</time>
      </trkpt>
      <trkpt lat="52.268300" lon="5.937920">
        <ele>19.937624</ele>
        <time>2026-08-02T20:44:02.124Z</time>
      </trkpt>
      <trkpt lat="52.270540" lon="5.934850">
        <ele>20.887038</ele>
        <time>2026-08-02T20:44:47.763Z</time>
      </trkpt>
      <trkpt lat="52.271301" lon="5.933775">
        <ele>21.462832</ele>
        <time>2026-08-02T20:45:06.524Z</time>
      </trkpt>
      <trkpt lat="52.272708" lon="5.931759">
        <ele>22.268878</ele>
        <time>2026-08-02T20:45:37.095Z</time>
      </trkpt>
      <trkpt lat="52.274550" lon="5.929169">
        <ele>22.804325</ele>
        <time>2026-08-02T20:46:15.599Z</time>
      </trkpt>
      <trkpt lat="52.275399" lon="5.927975">
        <ele>22.926400</ele>
        <time>2026-08-02T20:46:32.616Z</time>
      </trkpt>
      <trkpt lat="52.276667" lon="5.926162">
        <ele>22.748737</ele>
        <time>2026-08-02T20:46:56.228Z</time>
      </trkpt>
      <trkpt lat="52.278226" lon="5.923957">
        <ele>23.503216</ele>
        <time>2026-08-02T20:47:29.555Z</time>
      </trkpt>
      <trkpt lat="52.278335" lon="5.923802">
        <ele>23.614874</ele>
        <time>2026-08-02T20:47:32.338Z</time>
      </trkpt>
      <trkpt lat="52.279263" lon="5.922479">
        <ele>24.566543</ele>
        <time>2026-08-02T20:47:56.422Z</time>
      </trkpt>
      <trkpt lat="52.280342" lon="5.920947">
        <ele>24.684368</ele>
        <time>2026-08-02T20:48:17.724Z</time>
      </trkpt>
      <trkpt lat="52.280457" lon="5.920783">
        <ele>24.672521</ele>
        <time>2026-08-02T20:48:19.678Z</time>
      </trkpt>
      <trkpt lat="52.280624" lon="5.920546">
        <ele>24.655354</ele>
        <time>2026-08-02T20:48:22.480Z</time>
      </trkpt>
      <trkpt lat="52.282152" lon="5.918441">
        <ele>24.219482</ele>
        <time>2026-08-02T20:48:50.150Z</time>
      </trkpt>
      <trkpt lat="52.282182" lon="5.918418">
        <ele>24.211544</ele>
        <time>2026-08-02T20:48:50.706Z</time>
      </trkpt>
      <trkpt lat="52.282392" lon="5.918349">
        <ele>24.186860</ele>
        <time>2026-08-02T20:48:54.141Z</time>
      </trkpt>
      <trkpt lat="52.282978" lon="5.918364">
        <ele>24.132033</ele>
        <time>2026-08-02T20:49:02.961Z</time>
      </trkpt>
      <trkpt lat="52.283435" lon="5.918367">
        <ele>24.089280</ele>
        <time>2026-08-02T20:49:09.690Z</time>
      </trkpt>
      <trkpt lat="52.283628" lon="5.918258">
        <ele>24.070178</ele>
        <time>2026-08-02T20:49:12.415Z</time>
      </trkpt>
      <trkpt lat="52.283796" lon="5.918003">
        <ele>24.048731</ele>
        <time>2026-08-02T20:49:15.507Z</time>
      </trkpt>
      <trkpt lat="52.283977" lon="5.917522">
        <ele>24.140516</ele>
        <time>2026-08-02T20:49:20.322Z</time>
      </trkpt>
      <trkpt lat="52.284024" lon="5.917376">
        <ele>24.191956</ele>
        <time>2026-08-02T20:49:21.778Z</time>
      </trkpt>
      <trkpt lat="52.284231" lon="5.916762">
        <ele>24.410541</ele>
        <time>2026-08-02T20:49:28.447Z</time>
      </trkpt>
      <trkpt lat="52.284380" lon="5.916458">
        <ele>24.531995</ele>
        <time>2026-08-02T20:49:32.578Z</time>
      </trkpt>
      <trkpt lat="52.284544" lon="5.916206">
        <ele>24.646712</ele>
        <time>2026-08-02T20:49:36.632Z</time>
      </trkpt>
      <trkpt lat="52.284669" lon="5.915879">
        <ele>24.766935</ele>
        <time>2026-08-02T20:49:41.026Z</time>
      </trkpt>
      <trkpt lat="52.284747" lon="5.914913">
        <ele>25.189106</ele>
        <time>2026-08-02T20:49:52.547Z</time>
      </trkpt>
      <trkpt lat="52.284746" lon="5.913375">
        <ele>26.148236</ele>
        <time>2026-08-02T20:50:10.709Z</time>
      </trkpt>
      <trkpt lat="52.284701" lon="5.912215">
        <ele>26.807476</ele>
        <time>2026-08-02T20:50:23.779Z</time>
      </trkpt>
      <trkpt lat="52.284760" lon="5.911852">
        <ele>26.865311</ele>
        <time>2026-08-02T20:50:27.858Z</time>
      </trkpt>
      <trkpt lat="52.284985" lon="5.911260">
        <ele>26.972629</ele>
        <time>2026-08-02T20:50:35.177Z</time>
      </trkpt>
      <trkpt lat="52.284997" lon="5.911218">
        <ele>26.979767</ele>
        <time>2026-08-02T20:50:35.651Z</time>
      </trkpt>
      <trkpt lat="52.285101" lon="5.910642">
        <ele>27.072243</ele>
        <time>2026-08-02T20:50:41.458Z</time>
      </trkpt>
      <trkpt lat="52.285274" lon="5.909293">
        <ele>27.113930</ele>
        <time>2026-08-02T20:50:53.376Z</time>
      </trkpt>
      <trkpt lat="52.285435" lon="5.907565">
        <ele>26.380271</ele>
        <time>2026-08-02T20:51:07.338Z</time>
      </trkpt>
      <trkpt lat="52.285470" lon="5.907394">
        <ele>26.304586</ele>
        <time>2026-08-02T20:51:08.699Z</time>
      </trkpt>
      <trkpt lat="52.285522" lon="5.907246">
        <ele>26.232948</ele>
        <time>2026-08-02T20:51:09.968Z</time>
      </trkpt>
      <trkpt lat="52.285607" lon="5.907150">
        <ele>26.162061</ele>
        <time>2026-08-02T20:51:11.220Z</time>
      </trkpt>
      <trkpt lat="52.285851" lon="5.907026">
        <ele>25.983895</ele>
        <time>2026-08-02T20:51:14.259Z</time>
      </trkpt>
      <trkpt lat="52.286302" lon="5.906982">
        <ele>25.624475</ele>
        <time>2026-08-02T20:51:19.657Z</time>
      </trkpt>
      <trkpt lat="52.286911" lon="5.907064">
        <ele>25.138361</ele>
        <time>2026-08-02T20:51:27.100Z</time>
      </trkpt>
      <trkpt lat="52.288396" lon="5.907329">
        <ele>24.748294</ele>
        <time>2026-08-02T20:51:47.409Z</time>
      </trkpt>
      <trkpt lat="52.289333" lon="5.907512">
        <ele>24.958402</ele>
        <time>2026-08-02T20:52:03.512Z</time>
      </trkpt>
      <trkpt lat="52.289833" lon="5.907625">
        <ele>25.466536</ele>
        <time>2026-08-02T20:52:12.943Z</time>
      </trkpt>
      <trkpt lat="52.292597" lon="5.908178">
        <ele>28.865209</ele>
        <time>2026-08-02T20:53:08.284Z</time>
      </trkpt>
      <trkpt lat="52.295701" lon="5.908805">
        <ele>33.122162</ele>
        <time>2026-08-02T20:54:12.515Z</time>
      </trkpt>
      <trkpt lat="52.297406" lon="5.908359">
        <ele>34.781227</ele>
        <time>2026-08-02T20:54:45.285Z</time>
      </trkpt>
      <trkpt lat="52.298252" lon="5.908230">
        <ele>35.358886</ele>
        <time>2026-08-02T20:54:59.426Z</time>
      </trkpt>
      <trkpt lat="52.298921" lon="5.908262">
        <ele>35.378794</ele>
        <time>2026-08-02T20:55:09.671Z</time>
      </trkpt>
      <trkpt lat="52.300521" lon="5.908480">
        <ele>35.004289</ele>
        <time>2026-08-02T20:55:32.614Z</time>
      </trkpt>
      <trkpt lat="52.300677" lon="5.908384">
        <ele>34.873587</ele>
        <time>2026-08-02T20:55:34.849Z</time>
      </trkpt>
      <trkpt lat="52.300844" lon="5.908123">
        <ele>34.692444</ele>
        <time>2026-08-02T20:55:37.896Z</time>
      </trkpt>
      <trkpt lat="52.306382" lon="5.898637">
        <ele>28.675169</ele>
        <time>2026-08-02T20:57:18.047Z</time>
      </trkpt>
      <trkpt lat="52.307445" lon="5.896816">
        <ele>29.170734</ele>
        <time>2026-08-02T20:57:43.833Z</time>
      </trkpt>
      <trkpt lat="52.308516" lon="5.895048">
        <ele>29.937773</ele>
        <time>2026-08-02T20:58:10.982Z</time>
      </trkpt>
      <trkpt lat="52.308583" lon="5.895097">
        <ele>29.976649</ele>
        <time>2026-08-02T20:58:12.226Z</time>
      </trkpt>
      <trkpt lat="52.309240" lon="5.895180">
        <ele>30.313042</ele>
        <time>2026-08-02T20:58:22.853Z</time>
      </trkpt>
      <trkpt lat="52.309294" lon="5.895188">
        <ele>30.314983</ele>
        <time>2026-08-02T20:58:23.672Z</time>
      </trkpt>
      <trkpt lat="52.309321" lon="5.895190">
        <ele>30.315950</ele>
        <time>2026-08-02T20:58:24.094Z</time>
      </trkpt>
      <trkpt lat="52.310611" lon="5.895227">
        <ele>30.362129</ele>
        <time>2026-08-02T20:58:42.615Z</time>
      </trkpt>
      <trkpt lat="52.311104" lon="5.895162">
        <ele>30.398361</ele>
        <time>2026-08-02T20:58:50.063Z</time>
      </trkpt>
      <trkpt lat="52.311616" lon="5.895183">
        <ele>30.518698</ele>
        <time>2026-08-02T20:58:58.374Z</time>
      </trkpt>
      <trkpt lat="52.312564" lon="5.895465">
        <ele>30.745092</ele>
        <time>2026-08-02T20:59:14.287Z</time>
      </trkpt>
      <trkpt lat="52.313334" lon="5.895795">
        <ele>30.522817</ele>
        <time>2026-08-02T20:59:25.937Z</time>
      </trkpt>
      <trkpt lat="52.313437" lon="5.895833">
        <ele>30.471282</ele>
        <time>2026-08-02T20:59:27.366Z</time>
      </trkpt>
      <trkpt lat="52.313920" lon="5.896086">
        <ele>30.223750</ele>
        <time>2026-08-02T20:59:33.906Z</time>
      </trkpt>
      <trkpt lat="52.314366" lon="5.896424">
        <ele>29.983842</ele>
        <time>2026-08-02T20:59:40.073Z</time>
      </trkpt>
      <trkpt lat="52.314677" lon="5.897194">
        <ele>29.614444</ele>
        <time>2026-08-02T20:59:46.972Z</time>
      </trkpt>
      <trkpt lat="52.314963" lon="5.898056">
        <ele>29.192471</ele>
        <time>2026-08-02T20:59:54.339Z</time>
      </trkpt>
      <trkpt lat="52.315390" lon="5.898847">
        <ele>28.738454</ele>
        <time>2026-08-02T21:00:02.898Z</time>
      </trkpt>
      <trkpt lat="52.315992" lon="5.900341">
        <ele>28.640335</ele>
        <time>2026-08-02T21:00:18.816Z</time>
      </trkpt>
      <trkpt lat="52.316063" lon="5.900468">
        <ele>28.638714</ele>
        <time>2026-08-02T21:00:20.482Z</time>
      </trkpt>
      <trkpt lat="52.316176" lon="5.900529">
        <ele>28.636882</ele>
        <time>2026-08-02T21:00:22.363Z</time>
      </trkpt>
      <trkpt lat="52.316391" lon="5.900575">
        <ele>28.633543</ele>
        <time>2026-08-02T21:00:25.759Z</time>
      </trkpt>
      <trkpt lat="52.316471" lon="5.900583">
        <ele>28.632308</ele>
        <time>2026-08-02T21:00:28.017Z</time>
      </trkpt>
      <trkpt lat="52.316652" lon="5.896813">
        <ele>28.775218</ele>
        <time>2026-08-02T21:01:03.075Z</time>
      </trkpt>
      <trkpt lat="52.316657" lon="5.896729">
        <ele>28.776411</ele>
        <time>2026-08-02T21:01:03.831Z</time>
      </trkpt>
      <trkpt lat="52.317149" lon="5.895941">
        <ele>28.792333</ele>
        <time>2026-08-02T21:01:17.533Z</time>
      </trkpt>
      <trkpt lat="52.322229" lon="5.887799">
        <ele>29.041399</ele>
        <time>2026-08-02T21:03:41.789Z</time>
      </trkpt>
      <trkpt lat="52.322370" lon="5.887606">
        <ele>29.073912</ele>
        <time>2026-08-02T21:03:45.650Z</time>
      </trkpt>
      <trkpt lat="52.322521" lon="5.887447">
        <ele>29.105671</ele>
        <time>2026-08-02T21:03:49.439Z</time>
      </trkpt>
      <trkpt lat="52.322822" lon="5.887254">
        <ele>29.162848</ele>
        <time>2026-08-02T21:03:56.338Z</time>
      </trkpt>
      <trkpt lat="52.324257" lon="5.886643">
        <ele>29.715303</ele>
        <time>2026-08-02T21:04:28.970Z</time>
      </trkpt>
      <trkpt lat="52.324555" lon="5.886514">
        <ele>29.841997</ele>
        <time>2026-08-02T21:04:35.802Z</time>
      </trkpt>
      <trkpt lat="52.324690" lon="5.886455">
        <ele>29.899428</ele>
        <time>2026-08-02T21:04:38.893Z</time>
      </trkpt>
      <trkpt lat="52.333431" lon="5.882713">
        <ele>33.317859</ele>
        <time>2026-08-02T21:07:55.916Z</time>
      </trkpt>
      <trkpt lat="52.333726" lon="5.882587">
        <ele>33.269683</ele>
        <time>2026-08-02T21:08:01.737Z</time>
      </trkpt>
      <trkpt lat="52.334081" lon="5.882417">
        <ele>33.162191</ele>
        <time>2026-08-02T21:08:08.704Z</time>
      </trkpt>
      <trkpt lat="52.334592" lon="5.882175">
        <ele>33.007597</ele>
        <time>2026-08-02T21:08:18.553Z</time>
      </trkpt>
      <trkpt lat="52.335422" lon="5.881842">
        <ele>32.693627</ele>
        <time>2026-08-02T21:08:34.954Z</time>
      </trkpt>
      <trkpt lat="52.335862" lon="5.881664">
        <ele>32.408132</ele>
        <time>2026-08-02T21:08:43.647Z</time>
      </trkpt>
      <trkpt lat="52.338780" lon="5.880433">
        <ele>30.145673</ele>
        <time>2026-08-02T21:09:37.113Z</time>
      </trkpt>
      <trkpt lat="52.342016" lon="5.879021">
        <ele>27.048751</ele>
        <time>2026-08-02T21:10:35.248Z</time>
      </trkpt>
      <trkpt lat="52.345486" lon="5.877556">
        <ele>26.468545</ele>
        <time>2026-08-02T21:11:45.208Z</time>
      </trkpt>
      <trkpt lat="52.347334" lon="5.876762">
        <ele>27.592869</ele>
        <time>2026-08-02T21:12:29.655Z</time>
      </trkpt>
      <trkpt lat="52.348749" lon="5.876132">
        <ele>28.382341</ele>
        <time>2026-08-02T21:13:03.359Z</time>
      </trkpt>
      <trkpt lat="52.349331" lon="5.875914">
        <ele>28.552759</ele>
        <time>2026-08-02T21:13:16.044Z</time>
      </trkpt>
      <trkpt lat="52.353441" lon="5.874147">
        <ele>26.709933</ele>
        <time>2026-08-02T21:14:35.546Z</time>
      </trkpt>
      <trkpt lat="52.355106" lon="5.873446">
        <ele>25.763978</ele>
        <time>2026-08-02T21:15:05.830Z</time>
      </trkpt>
      <trkpt lat="52.355238" lon="5.873404">
        <ele>25.711756</ele>
        <time>2026-08-02T21:15:07.527Z</time>
      </trkpt>
      <trkpt lat="52.355412" lon="5.873340">
        <ele>25.642498</ele>
        <time>2026-08-02T21:15:09.850Z</time>
      </trkpt>
      <trkpt lat="52.355647" lon="5.873235">
        <ele>25.547897</ele>
        <time>2026-08-02T21:15:13.176Z</time>
      </trkpt>
      <trkpt lat="52.355722" lon="5.873244">
        <ele>25.518692</ele>
        <time>2026-08-02T21:15:14.231Z</time>
      </trkpt>
      <trkpt lat="52.356088" lon="5.873783">
        <ele>25.422528</ele>
        <time>2026-08-02T21:15:21.865Z</time>
      </trkpt>
      <trkpt lat="52.356934" lon="5.874842">
        <ele>26.352093</ele>
        <time>2026-08-02T21:15:41.862Z</time>
      </trkpt>
      <trkpt lat="52.356931" lon="5.874954">
        <ele>26.411859</ele>
        <time>2026-08-02T21:15:47.708Z</time>
      </trkpt>
      <trkpt lat="52.356934" lon="5.874842">
        <ele>26.471626</ele>
        <time>2026-08-02T21:15:53.503Z</time>
      </trkpt>
      <trkpt lat="52.356994" lon="5.874880">
        <ele>26.527781</ele>
        <time>2026-08-02T21:15:54.828Z</time>
      </trkpt>
      <trkpt lat="52.356989" lon="5.875169">
        <ele>26.681913</ele>
        <time>2026-08-02T21:15:58.360Z</time>
      </trkpt>
      <trkpt lat="52.356974" lon="5.876070">
        <ele>27.010345</ele>
        <time>2026-08-02T21:16:08.669Z</time>
      </trkpt>
      <trkpt lat="52.357014" lon="5.877022">
        <ele>27.190705</ele>
        <time>2026-08-02T21:16:18.485Z</time>
      </trkpt>
      <trkpt lat="52.357017" lon="5.877391">
        <ele>27.260455</ele>
        <time>2026-08-02T21:16:22.088Z</time>
      </trkpt>
      <trkpt lat="52.357071" lon="5.877795">
        <ele>27.338621</ele>
        <time>2026-08-02T21:16:25.959Z</time>
      </trkpt>
      <trkpt lat="52.357335" lon="5.881178">
        <ele>26.610134</ele>
        <time>2026-08-02T21:16:54.268Z</time>
      </trkpt>
      <trkpt lat="52.357352" lon="5.881525">
        <ele>26.491561</ele>
        <time>2026-08-02T21:16:56.801Z</time>
      </trkpt>
      <trkpt lat="52.357319" lon="5.882257">
        <ele>26.193283</ele>
        <time>2026-08-02T21:17:02.051Z</time>
      </trkpt>
      <trkpt lat="52.357324" lon="5.882720">
        <ele>26.005101</ele>
        <time>2026-08-02T21:17:05.334Z</time>
      </trkpt>
      <trkpt lat="52.357329" lon="5.882801">
        <ele>25.972017</ele>
        <time>2026-08-02T21:17:05.910Z</time>
      </trkpt>
      <trkpt lat="52.357343" lon="5.883047">
        <ele>25.871615</ele>
        <time>2026-08-02T21:17:07.682Z</time>
      </trkpt>
      <trkpt lat="52.357371" lon="5.883520">
        <ele>25.678499</ele>
        <time>2026-08-02T21:17:11.239Z</time>
      </trkpt>
      <trkpt lat="52.357465" lon="5.884561">
        <ele>25.443556</ele>
        <time>2026-08-02T21:17:20.676Z</time>
      </trkpt>
      <trkpt lat="52.357574" lon="5.886018">
        <ele>26.667330</ele>
        <time>2026-08-02T21:17:38.744Z</time>
      </trkpt>
      <trkpt lat="52.357686" lon="5.888520">
        <ele>28.493491</ele>
        <time>2026-08-02T21:18:13.305Z</time>
      </trkpt>
      <trkpt lat="52.357941" lon="5.890689">
        <ele>29.448549</ele>
        <time>2026-08-02T21:18:35.602Z</time>
      </trkpt>
      <trkpt lat="52.357946" lon="5.890728">
        <ele>29.438146</ele>
        <time>2026-08-02T21:18:35.927Z</time>
      </trkpt>
      <trkpt lat="52.358138" lon="5.890732">
        <ele>29.356063</ele>
        <time>2026-08-02T21:18:38.477Z</time>
      </trkpt>
      <trkpt lat="52.358172" lon="5.890818">
        <ele>29.329317</ele>
        <time>2026-08-02T21:18:39.326Z</time>
      </trkpt>
      <trkpt lat="52.358238" lon="5.890827">
        <ele>29.301005</ele>
        <time>2026-08-02T21:18:40.173Z</time>
      </trkpt>
      <trkpt lat="52.358423" lon="5.890886">
        <ele>29.220435</ele>
        <time>2026-08-02T21:18:42.607Z</time>
      </trkpt>
      <trkpt lat="52.358430" lon="5.890964">
        <ele>29.199853</ele>
        <time>2026-08-02T21:18:43.229Z</time>
      </trkpt>
      <trkpt lat="52.360156" lon="5.892163">
        <ele>28.538789</ele>
        <time>2026-08-02T21:19:17.072Z</time>
      </trkpt>
      <trkpt lat="52.360611" lon="5.892470">
        <ele>28.402464</ele>
        <time>2026-08-02T21:19:26.984Z</time>
      </trkpt>
      <trkpt lat="52.362190" lon="5.893584">
        <ele>28.547346</ele>
        <time>2026-08-02T21:20:04.281Z</time>
      </trkpt>
      <trkpt lat="52.362236" lon="5.893621">
        <ele>28.556799</ele>
        <time>2026-08-02T21:20:05.055Z</time>
      </trkpt>
      <trkpt lat="52.364591" lon="5.895292">
        <ele>28.405225</ele>
        <time>2026-08-02T21:20:40.295Z</time>
      </trkpt>
      <trkpt lat="52.366499" lon="5.896643">
        <ele>30.241496</ele>
        <time>2026-08-02T21:21:18.261Z</time>
      </trkpt>
      <trkpt lat="52.368389" lon="5.897973">
        <ele>33.512244</ele>
        <time>2026-08-02T21:22:05.753Z</time>
      </trkpt>
      <trkpt lat="52.368941" lon="5.898399">
        <ele>34.458945</ele>
        <time>2026-08-02T21:22:18.352Z</time>
      </trkpt>
      <trkpt lat="52.369168" lon="5.898640">
        <ele>34.878638</ele>
        <time>2026-08-02T21:22:23.400Z</time>
      </trkpt>
      <trkpt lat="52.370639" lon="5.900459">
        <ele>35.345756</ele>
        <time>2026-08-02T21:22:51.818Z</time>
      </trkpt>
      <trkpt lat="52.373046" lon="5.903426">
        <ele>35.186254</ele>
        <time>2026-08-02T21:23:35.554Z</time>
      </trkpt>
      <trkpt lat="52.377032" lon="5.908338">
        <ele>34.931804</ele>
        <time>2026-08-02T21:24:47.816Z</time>
      </trkpt>
      <trkpt lat="52.377040" lon="5.908348">
        <ele>34.933579</ele>
        <time>2026-08-02T21:24:47.971Z</time>
      </trkpt>
      <trkpt lat="52.377137" lon="5.908468">
        <ele>34.955017</ele>
        <time>2026-08-02T21:24:49.743Z</time>
      </trkpt>
      <trkpt lat="52.380608" lon="5.912756">
        <ele>36.933818</ele>
        <time>2026-08-02T21:26:02.526Z</time>
      </trkpt>
      <trkpt lat="52.380951" lon="5.913136">
        <ele>37.257730</ele>
        <time>2026-08-02T21:26:10.413Z</time>
      </trkpt>
      <trkpt lat="52.381002" lon="5.913186">
        <ele>37.307341</ele>
        <time>2026-08-02T21:26:11.520Z</time>
      </trkpt>
      <trkpt lat="52.381034" lon="5.913317">
        <ele>37.379235</ele>
        <time>2026-08-02T21:26:13.177Z</time>
      </trkpt>
      <trkpt lat="52.381094" lon="5.913518">
        <ele>37.493238</ele>
        <time>2026-08-02T21:26:15.760Z</time>
      </trkpt>
      <trkpt lat="52.381284" lon="5.913401">
        <ele>37.662669</ele>
        <time>2026-08-02T21:26:20.730Z</time>
      </trkpt>
      <trkpt lat="52.381537" lon="5.914179">
        <ele>38.111816</ele>
        <time>2026-08-02T21:26:30.917Z</time>
      </trkpt>
      <trkpt lat="52.382121" lon="5.915951">
        <ele>38.933103</ele>
        <time>2026-08-02T21:26:51.698Z</time>
      </trkpt>
      <trkpt lat="52.382290" lon="5.916462">
        <ele>39.137100</ele>
        <time>2026-08-02T21:26:57.861Z</time>
      </trkpt>
      <trkpt lat="52.383164" lon="5.919122">
        <ele>40.073406</ele>
        <time>2026-08-02T21:27:29.023Z</time>
      </trkpt>
      <trkpt lat="52.383182" lon="5.919173">
        <ele>40.090332</ele>
        <time>2026-08-02T21:27:29.619Z</time>
      </trkpt>
      <trkpt lat="52.383726" lon="5.920837">
        <ele>40.790322</ele>
        <time>2026-08-02T21:27:48.455Z</time>
      </trkpt>
      <trkpt lat="52.386639" lon="5.929675">
        <ele>45.358655</ele>
        <time>2026-08-02T21:29:38.520Z</time>
      </trkpt>
      <trkpt lat="52.390225" lon="5.940535">
        <ele>50.292831</ele>
        <time>2026-08-02T21:31:50.787Z</time>
      </trkpt>
      <trkpt lat="52.390938" lon="5.942694">
        <ele>50.191167</ele>
        <time>2026-08-02T21:32:12.761Z</time>
      </trkpt>
      <trkpt lat="52.390999" lon="5.942879">
        <ele>50.173960</ele>
        <time>2026-08-02T21:32:14.468Z</time>
      </trkpt>
      <trkpt lat="52.391312" lon="5.943825">
        <ele>49.869425</ele>
        <time>2026-08-02T21:32:22.960Z</time>
      </trkpt>
      <trkpt lat="52.393026" lon="5.949016">
        <ele>47.136911</ele>
        <time>2026-08-02T21:33:07.889Z</time>
      </trkpt>
      <trkpt lat="52.393387" lon="5.949939">
        <ele>46.952851</ele>
        <time>2026-08-02T21:33:17.075Z</time>
      </trkpt>
      <trkpt lat="52.393442" lon="5.950159">
        <ele>46.912936</ele>
        <time>2026-08-02T21:33:19.204Z</time>
      </trkpt>
      <trkpt lat="52.393519" lon="5.950692">
        <ele>46.820978</ele>
        <time>2026-08-02T21:33:24.324Z</time>
      </trkpt>
      <trkpt lat="52.393563" lon="5.951167">
        <ele>46.740317</ele>
        <time>2026-08-02T21:33:29.032Z</time>
      </trkpt>
      <trkpt lat="52.393720" lon="5.952850">
        <ele>46.121871</ele>
        <time>2026-08-02T21:33:44.628Z</time>
      </trkpt>
      <trkpt lat="52.393805" lon="5.953246">
        <ele>45.968361</ele>
        <time>2026-08-02T21:33:47.936Z</time>
      </trkpt>
      <trkpt lat="52.395845" lon="5.956753">
        <ele>41.127137</ele>
        <time>2026-08-02T21:34:20.736Z</time>
      </trkpt>
      <trkpt lat="52.396478" lon="5.957916">
        <ele>39.366145</ele>
        <time>2026-08-02T21:34:31.272Z</time>
      </trkpt>
      <trkpt lat="52.396496" lon="5.957956">
        <ele>39.309985</ele>
        <time>2026-08-02T21:34:31.617Z</time>
      </trkpt>
      <trkpt lat="52.397309" lon="5.959808">
        <ele>36.744981</ele>
        <time>2026-08-02T21:34:47.448Z</time>
      </trkpt>
      <trkpt lat="52.397506" lon="5.960322">
        <ele>36.063069</ele>
        <time>2026-08-02T21:34:51.573Z</time>
      </trkpt>
      <trkpt lat="52.397748" lon="5.961642">
        <ele>33.880822</ele>
        <time>2026-08-02T21:35:00.487Z</time>
      </trkpt>
      <trkpt lat="52.397751" lon="5.962029">
        <ele>33.208079</ele>
        <time>2026-08-02T21:35:02.902Z</time>
      </trkpt>
      <trkpt lat="52.397730" lon="5.963681">
        <ele>30.391951</ele>
        <time>2026-08-02T21:35:13.120Z</time>
      </trkpt>
      <trkpt lat="52.397781" lon="5.964093">
        <ele>29.853304</ele>
        <time>2026-08-02T21:35:15.707Z</time>
      </trkpt>
      <trkpt lat="52.397880" lon="5.964455">
        <ele>29.345018</ele>
        <time>2026-08-02T21:35:18.190Z</time>
      </trkpt>
      <trkpt lat="52.397814" lon="5.964647">
        <ele>29.062657</ele>
        <time>2026-08-02T21:35:19.592Z</time>
      </trkpt>
      <trkpt lat="52.397616" lon="5.965307">
        <ele>28.120317</ele>
        <time>2026-08-02T21:35:24.427Z</time>
      </trkpt>
      <trkpt lat="52.397417" lon="5.965924">
        <ele>27.226108</ele>
        <time>2026-08-02T21:35:29.290Z</time>
      </trkpt>
      <trkpt lat="52.396790" lon="5.967914">
        <ele>26.475544</ele>
        <time>2026-08-02T21:35:47.754Z</time>
      </trkpt>
      <trkpt lat="52.396294" lon="5.969517">
        <ele>26.220498</ele>
        <time>2026-08-02T21:36:05.503Z</time>
      </trkpt>
      <trkpt lat="52.395489" lon="5.972230">
        <ele>25.566464</ele>
        <time>2026-08-02T21:36:30.526Z</time>
      </trkpt>
      <trkpt lat="52.395597" lon="5.972211">
        <ele>25.480273</ele>
        <time>2026-08-02T21:36:32.401Z</time>
      </trkpt>
      <trkpt lat="52.395924" lon="5.972408">
        <ele>25.203821</ele>
        <time>2026-08-02T21:36:38.361Z</time>
      </trkpt>
      <trkpt lat="52.396973" lon="5.972587">
        <ele>24.450175</ele>
        <time>2026-08-02T21:36:56.629Z</time>
      </trkpt>
      <trkpt lat="52.397700" lon="5.972679">
        <ele>24.169554</ele>
        <time>2026-08-02T21:37:10.023Z</time>
      </trkpt>
      <trkpt lat="52.397928" lon="5.972714">
        <ele>24.081424</ele>
        <time>2026-08-02T21:37:14.526Z</time>
      </trkpt>
      <trkpt lat="52.398139" lon="5.972839">
        <ele>23.995077</ele>
        <time>2026-08-02T21:37:19.113Z</time>
      </trkpt>
      <trkpt lat="52.398581" lon="5.973171">
        <ele>23.823688</ele>
        <time>2026-08-02T21:37:29.078Z</time>
      </trkpt>
      <trkpt lat="52.398715" lon="5.973340">
        <ele>23.794664</ele>
        <time>2026-08-02T21:37:32.496Z</time>
      </trkpt>
      <trkpt lat="52.398954" lon="5.974014">
        <ele>23.713017</ele>
        <time>2026-08-02T21:37:42.055Z</time>
      </trkpt>
      <trkpt lat="52.399144" lon="5.974726">
        <ele>23.631625</ele>
        <time>2026-08-02T21:37:51.371Z</time>
      </trkpt>
      <trkpt lat="52.399296" lon="5.975426">
        <ele>23.553805</ele>
        <time>2026-08-02T21:38:00.015Z</time>
      </trkpt>
      <trkpt lat="52.399392" lon="5.975642">
        <ele>23.522637</ele>
        <time>2026-08-02T21:38:03.092Z</time>
      </trkpt>
      <trkpt lat="52.399591" lon="5.975954">
        <ele>23.391511</ele>
        <time>2026-08-02T21:38:08.240Z</time>
      </trkpt>
      <trkpt lat="52.399712" lon="5.976242">
        <ele>23.289923</ele>
        <time>2026-08-02T21:38:12.205Z</time>
      </trkpt>
      <trkpt lat="52.400092" lon="5.976725">
        <ele>23.060952</ele>
        <time>2026-08-02T21:38:21.052Z</time>
      </trkpt>
      <trkpt lat="52.401445" lon="5.979359">
        <ele>22.342046</ele>
        <time>2026-08-02T21:39:00.036Z</time>
      </trkpt>
      <trkpt lat="52.402288" lon="5.980753">
        <ele>22.382994</ele>
        <time>2026-08-02T21:39:25.787Z</time>
      </trkpt>
      <trkpt lat="52.402432" lon="5.980994">
        <ele>22.435425</ele>
        <time>2026-08-02T21:39:30.376Z</time>
      </trkpt>
      <trkpt lat="52.402477" lon="5.981155">
        <ele>22.462950</ele>
        <time>2026-08-02T21:39:32.757Z</time>
      </trkpt>
      <trkpt lat="52.402482" lon="5.981443">
        <ele>22.507732</ele>
        <time>2026-08-02T21:39:36.627Z</time>
      </trkpt>
      <trkpt lat="52.402449" lon="5.981732">
        <ele>22.553432</ele>
        <time>2026-08-02T21:39:40.533Z</time>
      </trkpt>
      <trkpt lat="52.402448" lon="5.981996">
        <ele>22.594466</ele>
        <time>2026-08-02T21:39:43.998Z</time>
      </trkpt>
      <trkpt lat="52.402681" lon="5.984362">
        <ele>22.397025</ele>
        <time>2026-08-02T21:40:12.609Z</time>
      </trkpt>
      <trkpt lat="52.402594" lon="5.984843">
        <ele>22.326498</ele>
        <time>2026-08-02T21:40:18.275Z</time>
      </trkpt>
      <trkpt lat="52.402312" lon="5.987505">
        <ele>21.903676</ele>
        <time>2026-08-02T21:40:49.415Z</time>
      </trkpt>
      <trkpt lat="52.402428" lon="5.988870">
        <ele>21.775005</ele>
        <time>2026-08-02T21:41:06.605Z</time>
      </trkpt>
      <trkpt lat="52.402533" lon="5.989202">
        <ele>21.771517</ele>
        <time>2026-08-02T21:41:11.349Z</time>
      </trkpt>
      <trkpt lat="52.402746" lon="5.989768">
        <ele>21.765315</ele>
        <time>2026-08-02T21:41:19.724Z</time>
      </trkpt>
      <trkpt lat="52.403539" lon="5.994964">
        <ele>21.496939</ele>
        <time>2026-08-02T21:42:23.694Z</time>
      </trkpt>
      <trkpt lat="52.404075" lon="5.998450">
        <ele>21.820451</ele>
        <time>2026-08-02T21:43:10.610Z</time>
      </trkpt>
      <trkpt lat="52.405085" lon="6.001607">
        <ele>22.207359</ele>
        <time>2026-08-02T21:43:55.220Z</time>
      </trkpt>
      <trkpt lat="52.405550" lon="6.003099">
        <ele>22.519439</ele>
        <time>2026-08-02T21:44:17.571Z</time>
      </trkpt>
      <trkpt lat="52.405574" lon="6.003184">
        <ele>22.541010</ele>
        <time>2026-08-02T21:44:18.816Z</time>
      </trkpt>
      <trkpt lat="52.405552" lon="6.003265">
        <ele>22.561429</ele>
        <time>2026-08-02T21:44:20.015Z</time>
      </trkpt>
      <trkpt lat="52.405240" lon="6.004550">
        <ele>22.879942</ele>
        <time>2026-08-02T21:44:38.283Z</time>
      </trkpt>
      <trkpt lat="52.405191" lon="6.004879">
        <ele>22.944510</ele>
        <time>2026-08-02T21:44:42.720Z</time>
      </trkpt>
      <trkpt lat="52.405108" lon="6.006275">
        <ele>22.933238</ele>
        <time>2026-08-02T21:45:01.412Z</time>
      </trkpt>
      <trkpt lat="52.405018" lon="6.006882">
        <ele>22.928218</ele>
        <time>2026-08-02T21:45:09.483Z</time>
      </trkpt>
      <trkpt lat="52.404817" lon="6.007384">
        <ele>22.923393</ele>
        <time>2026-08-02T21:45:16.337Z</time>
      </trkpt>
      <trkpt lat="52.404436" lon="6.007708">
        <ele>22.669563</ele>
        <time>2026-08-02T21:45:23.918Z</time>
      </trkpt>
      <trkpt lat="52.404359" lon="6.007771">
        <ele>22.588755</ele>
        <time>2026-08-02T21:45:25.388Z</time>
      </trkpt>
      <trkpt lat="52.404246" lon="6.007987">
        <ele>22.425756</ele>
        <time>2026-08-02T21:45:28.282Z</time>
      </trkpt>
      <trkpt lat="52.404152" lon="6.008399">
        <ele>22.173777</ele>
        <time>2026-08-02T21:45:32.714Z</time>
      </trkpt>
      <trkpt lat="52.404122" lon="6.008560">
        <ele>22.077342</ele>
        <time>2026-08-02T21:45:34.378Z</time>
      </trkpt>
      <trkpt lat="52.404179" lon="6.008652">
        <ele>22.002228</ele>
        <time>2026-08-02T21:45:35.286Z</time>
      </trkpt>
      <trkpt lat="52.404251" lon="6.008767">
        <ele>21.907833</ele>
        <time>2026-08-02T21:45:36.426Z</time>
      </trkpt>
      <trkpt lat="52.404372" lon="6.008970">
        <ele>21.745255</ele>
        <time>2026-08-02T21:45:38.425Z</time>
      </trkpt>
      <trkpt lat="52.404456" lon="6.009296">
        <ele>21.542533</ele>
        <time>2026-08-02T21:45:40.966Z</time>
      </trkpt>
      <trkpt lat="52.404837" lon="6.009995">
        <ele>21.464243</ele>
        <time>2026-08-02T21:45:48.712Z</time>
      </trkpt>
      <trkpt lat="52.404917" lon="6.010185">
        <ele>21.599417</ele>
        <time>2026-08-02T21:45:51.096Z</time>
      </trkpt>
      <trkpt lat="52.405003" lon="6.010517">
        <ele>21.810609</ele>
        <time>2026-08-02T21:45:55.086Z</time>
      </trkpt>
      <trkpt lat="52.405087" lon="6.010782">
        <ele>21.985468</ele>
        <time>2026-08-02T21:45:58.670Z</time>
      </trkpt>
      <trkpt lat="52.405259" lon="6.011086">
        <ele>22.228234</ele>
        <time>2026-08-02T21:46:03.950Z</time>
      </trkpt>
      <trkpt lat="52.405327" lon="6.011359">
        <ele>22.400891</ele>
        <time>2026-08-02T21:46:07.860Z</time>
      </trkpt>
      <trkpt lat="52.405470" lon="6.012118">
        <ele>22.866013</ele>
        <time>2026-08-02T21:46:18.492Z</time>
      </trkpt>
      <trkpt lat="52.405537" lon="6.012761">
        <ele>23.177745</ele>
        <time>2026-08-02T21:46:26.554Z</time>
      </trkpt>
      <trkpt lat="52.405715" lon="6.013408">
        <ele>23.492456</ele>
        <time>2026-08-02T21:46:34.677Z</time>
      </trkpt>
      <trkpt lat="52.405951" lon="6.014664">
        <ele>24.075198</ele>
        <time>2026-08-02T21:46:48.046Z</time>
      </trkpt>
      <trkpt lat="52.406133" lon="6.015643">
        <ele>24.443499</ele>
        <time>2026-08-02T21:46:57.528Z</time>
      </trkpt>
      <trkpt lat="52.406344" lon="6.016776">
        <ele>24.798014</ele>
        <time>2026-08-02T21:47:13.014Z</time>
      </trkpt>
      <trkpt lat="52.406719" lon="6.018379">
        <ele>25.320294</ele>
        <time>2026-08-02T21:47:37.868Z</time>
      </trkpt>
      <trkpt lat="52.406773" lon="6.018965">
        <ele>25.506870</ele>
        <time>2026-08-02T21:47:46.054Z</time>
      </trkpt>
      <trkpt lat="52.406802" lon="6.019079">
        <ele>25.545755</ele>
        <time>2026-08-02T21:47:47.732Z</time>
      </trkpt>
      <trkpt lat="52.406893" lon="6.019382">
        <ele>25.652078</ele>
        <time>2026-08-02T21:47:52.253Z</time>
      </trkpt>
      <trkpt lat="52.406958" lon="6.019582">
        <ele>25.723419</ele>
        <time>2026-08-02T21:47:55.271Z</time>
      </trkpt>
      <trkpt lat="52.407038" lon="6.019761">
        <ele>25.793275</ele>
        <time>2026-08-02T21:47:58.228Z</time>
      </trkpt>
      <trkpt lat="52.407340" lon="6.020091">
        <ele>25.980576</ele>
        <time>2026-08-02T21:48:06.243Z</time>
      </trkpt>
      <trkpt lat="52.407507" lon="6.020320">
        <ele>26.089812</ele>
        <time>2026-08-02T21:48:10.871Z</time>
      </trkpt>
      <trkpt lat="52.407616" lon="6.020453">
        <ele>26.146618</ele>
        <time>2026-08-02T21:48:13.647Z</time>
      </trkpt>
      <trkpt lat="52.407801" lon="6.020639">
        <ele>26.237347</ele>
        <time>2026-08-02T21:48:18.067Z</time>
      </trkpt>
      <trkpt lat="52.407818" lon="6.020795">
        <ele>26.277761</ele>
        <time>2026-08-02T21:48:20.038Z</time>
      </trkpt>
      <trkpt lat="52.407852" lon="6.020927">
        <ele>26.314303</ele>
        <time>2026-08-02T21:48:21.832Z</time>
      </trkpt>
      <trkpt lat="52.407915" lon="6.021007">
        <ele>26.347618</ele>
        <time>2026-08-02T21:48:23.480Z</time>
      </trkpt>
      <trkpt lat="52.408096" lon="6.021222">
        <ele>26.441064</ele>
        <time>2026-08-02T21:48:28.269Z</time>
      </trkpt>
      <trkpt lat="52.408268" lon="6.021334">
        <ele>26.518435</ele>
        <time>2026-08-02T21:48:32.389Z</time>
      </trkpt>
      <trkpt lat="52.408449" lon="6.021541">
        <ele>26.610698</ele>
        <time>2026-08-02T21:48:37.346Z</time>
      </trkpt>
      <trkpt lat="52.408623" lon="6.021683">
        <ele>26.691956</ele>
        <time>2026-08-02T21:48:41.769Z</time>
      </trkpt>
      <trkpt lat="52.408939" lon="6.022120">
        <ele>26.914455</ele>
        <time>2026-08-02T21:48:51.183Z</time>
      </trkpt>
      <trkpt lat="52.409382" lon="6.022542">
        <ele>27.421194</ele>
        <time>2026-08-02T21:49:02.851Z</time>
      </trkpt>
      <trkpt lat="52.410022" lon="6.023269">
        <ele>28.191280</ele>
        <time>2026-08-02T21:49:21.922Z</time>
      </trkpt>
      <trkpt lat="52.411297" lon="6.024601">
        <ele>29.006916</ele>
        <time>2026-08-02T21:50:00.672Z</time>
      </trkpt>
      <trkpt lat="52.411409" lon="6.024803">
        <ele>29.067891</ele>
        <time>2026-08-02T21:50:04.020Z</time>
      </trkpt>
      <trkpt lat="52.411535" lon="6.024921">
        <ele>29.121029</ele>
        <time>2026-08-02T21:50:06.764Z</time>
      </trkpt>
      <trkpt lat="52.411092" lon="6.026737">
        <ele>27.858984</ele>
        <time>2026-08-02T21:50:26.170Z</time>
      </trkpt>
      <trkpt lat="52.410566" lon="6.028942">
        <ele>25.122714</ele>
        <time>2026-08-02T21:50:48.960Z</time>
      </trkpt>
      <trkpt lat="52.410536" lon="6.029202">
        <ele>24.769515</ele>
        <time>2026-08-02T21:50:51.531Z</time>
      </trkpt>
      <trkpt lat="52.410596" lon="6.029657">
        <ele>24.148156</ele>
        <time>2026-08-02T21:50:55.995Z</time>
      </trkpt>
      <trkpt lat="52.410576" lon="6.029847">
        <ele>23.890798</ele>
        <time>2026-08-02T21:50:57.824Z</time>
      </trkpt>
      <trkpt lat="52.410493" lon="6.030064">
        <ele>23.548918</ele>
        <time>2026-08-02T21:51:00.230Z</time>
      </trkpt>
      <trkpt lat="52.409956" lon="6.030948">
        <ele>21.895445</ele>
        <time>2026-08-02T21:51:11.892Z</time>
      </trkpt>
      <trkpt lat="52.409887" lon="6.031063">
        <ele>21.689446</ele>
        <time>2026-08-02T21:51:13.367Z</time>
      </trkpt>
      <trkpt lat="52.409701" lon="6.031555">
        <ele>20.950249</ele>
        <time>2026-08-02T21:51:18.718Z</time>
      </trkpt>
      <trkpt lat="52.409410" lon="6.032911">
        <ele>19.114498</ele>
        <time>2026-08-02T21:51:32.366Z</time>
      </trkpt>
      <trkpt lat="52.409230" lon="6.033572">
        <ele>18.269836</ele>
        <time>2026-08-02T21:51:39.575Z</time>
      </trkpt>
      <trkpt lat="52.409207" lon="6.033742">
        <ele>18.135987</ele>
        <time>2026-08-02T21:51:41.328Z</time>
      </trkpt>
      <trkpt lat="52.409165" lon="6.034104">
        <ele>17.852740</ele>
        <time>2026-08-02T21:51:45.042Z</time>
      </trkpt>
      <trkpt lat="52.408233" lon="6.037950">
        <ele>14.895213</ele>
        <time>2026-08-02T21:52:28.087Z</time>
      </trkpt>
      <trkpt lat="52.408144" lon="6.038162">
        <ele>14.727838</ele>
        <time>2026-08-02T21:52:30.850Z</time>
      </trkpt>
      <trkpt lat="52.408051" lon="6.038545">
        <ele>14.459735</ele>
        <time>2026-08-02T21:52:35.306Z</time>
      </trkpt>
      <trkpt lat="52.408000" lon="6.038630">
        <ele>14.382195</ele>
        <time>2026-08-02T21:52:36.585Z</time>
      </trkpt>
      <trkpt lat="52.407582" lon="6.040362">
        <ele>13.270290</ele>
        <time>2026-08-02T21:52:50.741Z</time>
      </trkpt>
      <trkpt lat="52.407482" lon="6.040779">
        <ele>13.006877</ele>
        <time>2026-08-02T21:52:54.053Z</time>
      </trkpt>
      <trkpt lat="52.407443" lon="6.040934">
        <ele>12.908306</ele>
        <time>2026-08-02T21:52:55.282Z</time>
      </trkpt>
      <trkpt lat="52.407020" lon="6.042796">
        <ele>11.718635</ele>
        <time>2026-08-02T21:53:09.875Z</time>
      </trkpt>
      <trkpt lat="52.406691" lon="6.044238">
        <ele>10.786895</ele>
        <time>2026-08-02T21:53:21.443Z</time>
      </trkpt>
      <trkpt lat="52.406579" lon="6.044750">
        <ele>10.480362</ele>
        <time>2026-08-02T21:53:27.449Z</time>
      </trkpt>
      <trkpt lat="52.406170" lon="6.046675">
        <ele>9.367662</ele>
        <time>2026-08-02T21:53:43.272Z</time>
      </trkpt>
      <trkpt lat="52.405666" lon="6.048960">
        <ele>7.896255</ele>
        <time>2026-08-02T21:54:00.482Z</time>
      </trkpt>
      <trkpt lat="52.405573" lon="6.049364">
        <ele>7.627602</ele>
        <time>2026-08-02T21:54:03.812Z</time>
      </trkpt>
      <trkpt lat="52.405455" lon="6.049736">
        <ele>7.366740</ele>
        <time>2026-08-02T21:54:07.223Z</time>
      </trkpt>
      <trkpt lat="52.404967" lon="6.050906">
        <ele>7.121834</ele>
        <time>2026-08-02T21:54:19.813Z</time>
      </trkpt>
      <trkpt lat="52.404790" lon="6.051332">
        <ele>7.069861</ele>
        <time>2026-08-02T21:54:24.940Z</time>
      </trkpt>
      <trkpt lat="52.404672" lon="6.051700">
        <ele>7.027940</ele>
        <time>2026-08-02T21:54:28.838Z</time>
      </trkpt>
      <trkpt lat="52.404648" lon="6.051780">
        <ele>7.018951</ele>
        <time>2026-08-02T21:54:29.631Z</time>
      </trkpt>
      <trkpt lat="52.404611" lon="6.051904">
        <ele>7.005032</ele>
        <time>2026-08-02T21:54:31.284Z</time>
      </trkpt>
      <trkpt lat="52.404512" lon="6.052857">
        <ele>6.827300</ele>
        <time>2026-08-02T21:54:42.089Z</time>
      </trkpt>
      <trkpt lat="52.404472" lon="6.054359">
        <ele>6.372929</ele>
        <time>2026-08-02T21:54:58.543Z</time>
      </trkpt>
      <trkpt lat="52.404460" lon="6.054933">
        <ele>6.199351</ele>
        <time>2026-08-02T21:55:03.258Z</time>
      </trkpt>
      <trkpt lat="52.404103" lon="6.056287">
        <ele>5.907044</ele>
        <time>2026-08-02T21:55:16.038Z</time>
      </trkpt>
      <trkpt lat="52.404015" lon="6.056518">
        <ele>5.866408</ele>
        <time>2026-08-02T21:55:18.452Z</time>
      </trkpt>
      <trkpt lat="52.403800" lon="6.056937">
        <ele>5.784713</ele>
        <time>2026-08-02T21:55:23.270Z</time>
      </trkpt>
      <trkpt lat="52.403188" lon="6.057876">
        <ele>5.600715</ele>
        <time>2026-08-02T21:55:34.662Z</time>
      </trkpt>
      <trkpt lat="52.403088" lon="6.058113">
        <ele>5.582075</ele>
        <time>2026-08-02T21:55:37.055Z</time>
      </trkpt>
      <trkpt lat="52.402972" lon="6.058548">
        <ele>5.551366</ele>
        <time>2026-08-02T21:55:41.105Z</time>
      </trkpt>
      <trkpt lat="52.402859" lon="6.059280">
        <ele>5.502522</ele>
        <time>2026-08-02T21:55:47.802Z</time>
      </trkpt>
      <trkpt lat="52.402782" lon="6.059602">
        <ele>5.480149</ele>
        <time>2026-08-02T21:55:52.040Z</time>
      </trkpt>
      <trkpt lat="52.402645" lon="6.059773">
        <ele>5.461891</ele>
        <time>2026-08-02T21:55:55.508Z</time>
      </trkpt>
      <trkpt lat="52.402166" lon="6.060225">
        <ele>5.429961</ele>
        <time>2026-08-02T21:56:06.926Z</time>
      </trkpt>
      <trkpt lat="52.401798" lon="6.060587">
        <ele>5.437653</ele>
        <time>2026-08-02T21:56:15.964Z</time>
      </trkpt>
      <trkpt lat="52.401758" lon="6.060724">
        <ele>5.439314</ele>
        <time>2026-08-02T21:56:17.880Z</time>
      </trkpt>
      <trkpt lat="52.401687" lon="6.061021">
        <ele>5.442802</ele>
        <time>2026-08-02T21:56:21.857Z</time>
      </trkpt>
      <trkpt lat="52.401708" lon="6.061225">
        <ele>5.445064</ele>
        <time>2026-08-02T21:56:24.411Z</time>
      </trkpt>
      <trkpt lat="52.402062" lon="6.064109">
        <ele>5.239928</ele>
        <time>2026-08-02T21:56:50.610Z</time>
      </trkpt>
      <trkpt lat="52.402252" lon="6.065125">
        <ele>5.105589</ele>
        <time>2026-08-02T21:56:59.479Z</time>
      </trkpt>
      <trkpt lat="52.402281" lon="6.065217">
        <ele>5.092498</ele>
        <time>2026-08-02T21:57:00.313Z</time>
      </trkpt>
      <trkpt lat="52.402380" lon="6.065359">
        <ele>5.026247</ele>
        <time>2026-08-02T21:57:02.034Z</time>
      </trkpt>
      <trkpt lat="52.402420" lon="6.065476">
        <ele>4.976907</ele>
        <time>2026-08-02T21:57:03.078Z</time>
      </trkpt>
      <trkpt lat="52.402417" lon="6.065763">
        <ele>4.871308</ele>
        <time>2026-08-02T21:57:05.335Z</time>
      </trkpt>
      <trkpt lat="52.402415" lon="6.065849">
        <ele>4.839647</ele>
        <time>2026-08-02T21:57:06.016Z</time>
      </trkpt>
      <trkpt lat="52.401944" lon="6.065754">
        <ele>4.553499</ele>
        <time>2026-08-02T21:57:12.068Z</time>
      </trkpt>
      <trkpt lat="52.401591" lon="6.065622">
        <ele>4.335176</ele>
        <time>2026-08-02T21:57:16.668Z</time>
      </trkpt>
      <trkpt lat="52.400411" lon="6.064993">
        <ele>3.806204</ele>
        <time>2026-08-02T21:57:32.839Z</time>
      </trkpt>
      <trkpt lat="52.399335" lon="6.064355">
        <ele>3.494984</ele>
        <time>2026-08-02T21:57:49.354Z</time>
      </trkpt>
      <trkpt lat="52.397811" lon="6.063039">
        <ele>3.723066</ele>
        <time>2026-08-02T21:58:16.184Z</time>
      </trkpt>
      <trkpt lat="52.396912" lon="6.062200">
        <ele>3.752167</ele>
        <time>2026-08-02T21:58:31.158Z</time>
      </trkpt>
      <trkpt lat="52.393850" lon="6.059685">
        <ele>3.991979</ele>
        <time>2026-08-02T21:59:23.180Z</time>
      </trkpt>
      <trkpt lat="52.393688" lon="6.061797">
        <ele>4.046923</ele>
        <time>2026-08-02T21:59:42.905Z</time>
      </trkpt>
      <trkpt lat="52.393611" lon="6.062552">
        <ele>4.015716</ele>
        <time>2026-08-02T21:59:49.969Z</time>
      </trkpt>
      <trkpt lat="52.393597" lon="6.063343">
        <ele>3.983454</ele>
        <time>2026-08-02T21:59:57.033Z</time>
      </trkpt>
      <trkpt lat="52.393544" lon="6.063683">
        <ele>3.969147</ele>
        <time>2026-08-02T22:00:00.087Z</time>
      </trkpt>
      <trkpt lat="52.393419" lon="6.064070">
        <ele>3.951296</ele>
        <time>2026-08-02T22:00:03.833Z</time>
      </trkpt>
      <trkpt lat="52.393009" lon="6.064807">
        <ele>3.760068</ele>
        <time>2026-08-02T22:00:12.108Z</time>
      </trkpt>
      <trkpt lat="52.392925" lon="6.065025">
        <ele>3.707276</ele>
        <time>2026-08-02T22:00:14.200Z</time>
      </trkpt>
      <trkpt lat="52.392894" lon="6.065276">
        <ele>3.654839</ele>
        <time>2026-08-02T22:00:16.281Z</time>
      </trkpt>
      <trkpt lat="52.392869" lon="6.067605">
        <ele>3.237359</ele>
        <time>2026-08-02T22:00:35.713Z</time>
      </trkpt>
      <trkpt lat="52.392889" lon="6.068538">
        <ele>3.114421</ele>
        <time>2026-08-02T22:00:43.810Z</time>
      </trkpt>
      <trkpt lat="52.392890" lon="6.068681">
        <ele>3.095589</ele>
        <time>2026-08-02T22:00:45.532Z</time>
      </trkpt>
      <trkpt lat="52.392891" lon="6.068876">
        <ele>3.069909</ele>
        <time>2026-08-02T22:00:47.847Z</time>
      </trkpt>
      <trkpt lat="52.392890" lon="6.070207">
        <ele>2.965721</ele>
        <time>2026-08-02T22:00:59.504Z</time>
      </trkpt>
      <trkpt lat="52.392962" lon="6.070856">
        <ele>2.978799</ele>
        <time>2026-08-02T22:01:05.532Z</time>
      </trkpt>
      <trkpt lat="52.393047" lon="6.071357">
        <ele>2.989108</ele>
        <time>2026-08-02T22:01:10.256Z</time>
      </trkpt>
      <trkpt lat="52.393185" lon="6.071893">
        <ele>3.000642</ele>
        <time>2026-08-02T22:01:15.605Z</time>
      </trkpt>
      <trkpt lat="52.393304" lon="6.072236">
        <ele>3.008464</ele>
        <time>2026-08-02T22:01:19.280Z</time>
      </trkpt>
      <trkpt lat="52.393096" lon="6.072381">
        <ele>3.014692</ele>
        <time>2026-08-02T22:01:23.963Z</time>
      </trkpt>
      <trkpt lat="52.392908" lon="6.072440">
        <ele>3.013631</ele>
        <time>2026-08-02T22:01:27.958Z</time>
      </trkpt>
      <trkpt lat="52.392654" lon="6.072447">
        <ele>3.012223</ele>
        <time>2026-08-02T22:01:33.226Z</time>
      </trkpt>
      <trkpt lat="52.392136" lon="6.072330">
        <ele>3.009326</ele>
        <time>2026-08-02T22:01:43.725Z</time>
      </trkpt>
      <trkpt lat="52.390462" lon="6.071953">
        <ele>3.008304</ele>
        <time>2026-08-02T22:02:17.356Z</time>
      </trkpt>
      <trkpt lat="52.388973" lon="6.070961">
        <ele>2.940682</ele>
        <time>2026-08-02T22:02:50.455Z</time>
      </trkpt>
      <trkpt lat="52.388723" lon="6.070852">
        <ele>2.914306</ele>
        <time>2026-08-02T22:02:55.625Z</time>
      </trkpt>
      <trkpt lat="52.388579" lon="6.070808">
        <ele>2.899371</ele>
        <time>2026-08-02T22:02:58.522Z</time>
      </trkpt>
      <trkpt lat="52.388026" lon="6.070350">
        <ele>2.836194</ele>
        <time>2026-08-02T22:03:10.470Z</time>
      </trkpt>
      <trkpt lat="52.386917" lon="6.068747">
        <ele>2.371261</ele>
        <time>2026-08-02T22:03:38.441Z</time>
      </trkpt>
      <trkpt lat="52.385478" lon="6.067529">
        <ele>2.040665</ele>
        <time>2026-08-02T22:04:10.091Z</time>
      </trkpt>
      <trkpt lat="52.383664" lon="6.066025">
        <ele>1.778065</ele>
        <time>2026-08-02T22:04:50.323Z</time>
      </trkpt>
      <trkpt lat="52.383477" lon="6.065901">
        <ele>1.754833</ele>
        <time>2026-08-02T22:04:54.284Z</time>
      </trkpt>
      <trkpt lat="52.383190" lon="6.066282">
        <ele>1.671077</ele>
        <time>2026-08-02T22:04:59.490Z</time>
      </trkpt>
      <trkpt lat="52.383054" lon="6.066530">
        <ele>1.611251</ele>
        <time>2026-08-02T22:05:02.334Z</time>
      </trkpt>
      <trkpt lat="52.382619" lon="6.067653">
        <ele>1.372575</ele>
        <time>2026-08-02T22:05:13.388Z</time>
      </trkpt>
      <trkpt lat="52.381854" lon="6.069669">
        <ele>0.876122</ele>
        <time>2026-08-02T22:05:33.281Z</time>
      </trkpt>
      <trkpt lat="52.381822" lon="6.069897">
        <ele>0.822909</ele>
        <time>2026-08-02T22:05:35.244Z</time>
      </trkpt>
      <trkpt lat="52.381771" lon="6.070306">
        <ele>0.727960</ele>
        <time>2026-08-02T22:05:38.762Z</time>
      </trkpt>
      <trkpt lat="52.381711" lon="6.070481">
        <ele>0.682306</ele>
        <time>2026-08-02T22:05:40.478Z</time>
      </trkpt>
      <trkpt lat="52.381619" lon="6.070538">
        <ele>0.645654</ele>
        <time>2026-08-02T22:05:41.865Z</time>
      </trkpt>
      <trkpt lat="52.381532" lon="6.070517">
        <ele>0.612885</ele>
        <time>2026-08-02T22:05:43.094Z</time>
      </trkpt>
      <trkpt lat="52.381332" lon="6.070381">
        <ele>0.529541</ele>
        <time>2026-08-02T22:05:46.186Z</time>
      </trkpt>
      <trkpt lat="52.380720" lon="6.070258">
        <ele>0.219779</ele>
        <time>2026-08-02T22:05:54.021Z</time>
      </trkpt>
      <trkpt lat="52.380409" lon="6.070286">
        <ele>0.063302</ele>
        <time>2026-08-02T22:05:57.602Z</time>
      </trkpt>
      <trkpt lat="52.380043" lon="6.070204">
        <ele>-0.122281</ele>
        <time>2026-08-02T22:06:02.319Z</time>
      </trkpt>
      <trkpt lat="52.379939" lon="6.070235">
        <ele>-0.175386</ele>
        <time>2026-08-02T22:06:03.771Z</time>
      </trkpt>
      <trkpt lat="52.379866" lon="6.070359">
        <ele>-0.228216</ele>
        <time>2026-08-02T22:06:05.303Z</time>
      </trkpt>
      <trkpt lat="52.379782" lon="6.070915">
        <ele>-0.330218</ele>
        <time>2026-08-02T22:06:10.905Z</time>
      </trkpt>
      <trkpt lat="52.379815" lon="6.071129">
        <ele>-0.273507</ele>
        <time>2026-08-02T22:06:13.098Z</time>
      </trkpt>
      <trkpt lat="52.380446" lon="6.071822">
        <ele>0.046249</ele>
        <time>2026-08-02T22:06:26.254Z</time>
      </trkpt>
      <trkpt lat="52.380550" lon="6.071996">
        <ele>0.108817</ele>
        <time>2026-08-02T22:06:29.276Z</time>
      </trkpt>
      <trkpt lat="52.373924" lon="6.066368">
        <ele>1.545233</ele>
        <time>2026-08-02T22:08:24.731Z</time>
      </trkpt>
      <trkpt lat="52.373660" lon="6.066205">
        <ele>1.599761</ele>
        <time>2026-08-02T22:08:29.324Z</time>
      </trkpt>
      <trkpt lat="52.373325" lon="6.066143">
        <ele>1.629662</ele>
        <time>2026-08-02T22:08:34.760Z</time>
      </trkpt>
      <trkpt lat="52.373266" lon="6.066141">
        <ele>1.631282</ele>
        <time>2026-08-02T22:08:35.711Z</time>
      </trkpt>
      <trkpt lat="52.373176" lon="6.066124">
        <ele>1.633770</ele>
        <time>2026-08-02T22:08:37.173Z</time>
      </trkpt>
      <trkpt lat="52.373117" lon="6.066119">
        <ele>1.635393</ele>
        <time>2026-08-02T22:08:38.118Z</time>
      </trkpt>
      <trkpt lat="52.370953" lon="6.065917">
        <ele>1.604607</ele>
        <time>2026-08-02T22:09:09.580Z</time>
      </trkpt>
      <trkpt lat="52.370703" lon="6.065941">
        <ele>1.582863</ele>
        <time>2026-08-02T22:09:13.201Z</time>
      </trkpt>
      <trkpt lat="52.370440" lon="6.066038">
        <ele>1.559456</ele>
        <time>2026-08-02T22:09:17.118Z</time>
      </trkpt>
      <trkpt lat="52.370190" lon="6.066211">
        <ele>1.535891</ele>
        <time>2026-08-02T22:09:21.064Z</time>
      </trkpt>
      <trkpt lat="52.369913" lon="6.066516">
        <ele>1.535885</ele>
        <time>2026-08-02T22:09:25.959Z</time>
      </trkpt>
      <trkpt lat="52.369750" lon="6.066779">
        <ele>1.572810</ele>
        <time>2026-08-02T22:09:29.338Z</time>
      </trkpt>
      <trkpt lat="52.369679" lon="6.066946">
        <ele>1.592861</ele>
        <time>2026-08-02T22:09:31.190Z</time>
      </trkpt>
      <trkpt lat="52.369635" lon="6.067052">
        <ele>1.605490</ele>
        <time>2026-08-02T22:09:32.364Z</time>
      </trkpt>
      <trkpt lat="52.369555" lon="6.067241">
        <ele>1.628150</ele>
        <time>2026-08-02T22:09:34.492Z</time>
      </trkpt>
      <trkpt lat="52.369249" lon="6.068324">
        <ele>1.745731</ele>
        <time>2026-08-02T22:09:45.790Z</time>
      </trkpt>
      <trkpt lat="52.368010" lon="6.072682">
        <ele>2.959841</ele>
        <time>2026-08-02T22:10:34.909Z</time>
      </trkpt>
      <trkpt lat="52.368039" lon="6.072805">
        <ele>2.993554</ele>
        <time>2026-08-02T22:10:36.266Z</time>
      </trkpt>
      <trkpt lat="52.367997" lon="6.073037">
        <ele>3.055426</ele>
        <time>2026-08-02T22:10:38.774Z</time>
      </trkpt>
      <trkpt lat="52.367936" lon="6.073225">
        <ele>3.109862</ele>
        <time>2026-08-02T22:10:41.000Z</time>
      </trkpt>
      <trkpt lat="52.367853" lon="6.073388">
        <ele>3.164130</ele>
        <time>2026-08-02T22:10:43.185Z</time>
      </trkpt>
      <trkpt lat="52.367832" lon="6.073414">
        <ele>3.175154</ele>
        <time>2026-08-02T22:10:43.635Z</time>
      </trkpt>
      <trkpt lat="52.367699" lon="6.073576">
        <ele>3.244563</ele>
        <time>2026-08-02T22:10:46.395Z</time>
      </trkpt>
      <trkpt lat="52.367578" lon="6.073645">
        <ele>3.298217</ele>
        <time>2026-08-02T22:10:48.483Z</time>
      </trkpt>
      <trkpt lat="52.367448" lon="6.073660">
        <ele>3.352790</ele>
        <time>2026-08-02T22:10:50.533Z</time>
      </trkpt>
      <trkpt lat="52.367408" lon="6.073585">
        <ele>3.378253</ele>
        <time>2026-08-02T22:10:51.501Z</time>
      </trkpt>
      <trkpt lat="52.367270" lon="6.073558">
        <ele>3.374482</ele>
        <time>2026-08-02T22:10:53.618Z</time>
      </trkpt>
      <trkpt lat="52.366979" lon="6.073450">
        <ele>3.303832</ele>
        <time>2026-08-02T22:10:58.052Z</time>
      </trkpt>
      <trkpt lat="52.366626" lon="6.073355">
        <ele>3.219127</ele>
        <time>2026-08-02T22:11:03.046Z</time>
      </trkpt>
      <trkpt lat="52.366116" lon="6.073291">
        <ele>3.098015</ele>
        <time>2026-08-02T22:11:10.089Z</time>
      </trkpt>
      <trkpt lat="52.365611" lon="6.073282">
        <ele>2.978434</ele>
        <time>2026-08-02T22:11:16.753Z</time>
      </trkpt>
      <trkpt lat="52.365096" lon="6.073323">
        <ele>2.953909</ele>
        <time>2026-08-02T22:11:23.593Z</time>
      </trkpt>
      <trkpt lat="52.364788" lon="6.073393">
        <ele>2.942943</ele>
        <time>2026-08-02T22:11:28.045Z</time>
      </trkpt>
      <trkpt lat="52.364192" lon="6.073542">
        <ele>2.921681</ele>
        <time>2026-08-02T22:11:37.327Z</time>
      </trkpt>
      <trkpt lat="52.363908" lon="6.073662">
        <ele>2.911337</ele>
        <time>2026-08-02T22:11:41.930Z</time>
      </trkpt>
      <trkpt lat="52.362773" lon="6.074211">
        <ele>3.170824</ele>
        <time>2026-08-02T22:12:01.229Z</time>
      </trkpt>
      <trkpt lat="52.362299" lon="6.074538">
        <ele>3.296658</ele>
        <time>2026-08-02T22:12:09.245Z</time>
      </trkpt>
      <trkpt lat="52.361948" lon="6.074801">
        <ele>3.351494</ele>
        <time>2026-08-02T22:12:14.996Z</time>
      </trkpt>
      <trkpt lat="52.361455" lon="6.074933">
        <ele>3.362473</ele>
        <time>2026-08-02T22:12:22.221Z</time>
      </trkpt>
      <trkpt lat="52.360615" lon="6.075139">
        <ele>3.381140</ele>
        <time>2026-08-02T22:12:34.898Z</time>
      </trkpt>
      <trkpt lat="52.360093" lon="6.075390">
        <ele>3.383110</ele>
        <time>2026-08-02T22:12:42.951Z</time>
      </trkpt>
      <trkpt lat="52.359818" lon="6.075592">
        <ele>3.378674</ele>
        <time>2026-08-02T22:12:47.446Z</time>
      </trkpt>
      <trkpt lat="52.359467" lon="6.075954">
        <ele>3.372568</ele>
        <time>2026-08-02T22:12:53.615Z</time>
      </trkpt>
      <trkpt lat="52.358696" lon="6.077230">
        <ele>3.400648</ele>
        <time>2026-08-02T22:13:09.814Z</time>
      </trkpt>
      <trkpt lat="52.358140" lon="6.078238">
        <ele>3.516711</ele>
        <time>2026-08-02T22:13:22.626Z</time>
      </trkpt>
      <trkpt lat="52.357839" lon="6.078895">
        <ele>3.586892</ele>
        <time>2026-08-02T22:13:30.537Z</time>
      </trkpt>
      <trkpt lat="52.357190" lon="6.079186">
        <ele>3.641785</ele>
        <time>2026-08-02T22:13:40.791Z</time>
      </trkpt>
      <trkpt lat="52.357016" lon="6.079352">
        <ele>3.653871</ele>
        <time>2026-08-02T22:13:43.800Z</time>
      </trkpt>
      <trkpt lat="52.356868" lon="6.079559">
        <ele>3.665553</ele>
        <time>2026-08-02T22:13:46.702Z</time>
      </trkpt>
      <trkpt lat="52.356532" lon="6.079973">
        <ele>3.690790</ele>
        <time>2026-08-02T22:13:52.939Z</time>
      </trkpt>
      <trkpt lat="52.356350" lon="6.080690">
        <ele>3.719250</ele>
        <time>2026-08-02T22:13:59.973Z</time>
      </trkpt>
      <trkpt lat="52.356165" lon="6.080908">
        <ele>3.770010</ele>
        <time>2026-08-02T22:14:03.413Z</time>
      </trkpt>
      <trkpt lat="52.356023" lon="6.080926">
        <ele>3.803545</ele>
        <time>2026-08-02T22:14:05.597Z</time>
      </trkpt>
      <trkpt lat="52.355860" lon="6.080915">
        <ele>3.841957</ele>
        <time>2026-08-02T22:14:08.157Z</time>
      </trkpt>
      <trkpt lat="52.355735" lon="6.080962">
        <ele>3.872155</ele>
        <time>2026-08-02T22:14:10.213Z</time>
      </trkpt>
      <trkpt lat="52.355642" lon="6.081051">
        <ele>3.897519</ele>
        <time>2026-08-02T22:14:11.942Z</time>
      </trkpt>
      <trkpt lat="52.355288" lon="6.081551">
        <ele>4.007600</ele>
        <time>2026-08-02T22:14:19.558Z</time>
      </trkpt>
      <trkpt lat="52.354883" lon="6.081967">
        <ele>4.120172</ele>
        <time>2026-08-02T22:14:27.299Z</time>
      </trkpt>
      <trkpt lat="52.354600" lon="6.082500">
        <ele>4.158949</ele>
        <time>2026-08-02T22:14:34.193Z</time>
      </trkpt>
      <trkpt lat="52.353991" lon="6.083395">
        <ele>4.196501</ele>
        <time>2026-08-02T22:14:46.544Z</time>
      </trkpt>
      <trkpt lat="52.353846" lon="6.083476">
        <ele>4.203532</ele>
        <time>2026-08-02T22:14:48.761Z</time>
      </trkpt>
      <trkpt lat="52.353379" lon="6.083579">
        <ele>4.225155</ele>
        <time>2026-08-02T22:14:55.502Z</time>
      </trkpt>
      <trkpt lat="52.353075" lon="6.083800">
        <ele>4.159729</ele>
        <time>2026-08-02T22:15:00.234Z</time>
      </trkpt>
      <trkpt lat="52.352934" lon="6.084034">
        <ele>4.116340</ele>
        <time>2026-08-02T22:15:03.072Z</time>
      </trkpt>
      <trkpt lat="52.352697" lon="6.084677">
        <ele>4.017208</ele>
        <time>2026-08-02T22:15:09.513Z</time>
      </trkpt>
      <trkpt lat="52.352531" lon="6.085214">
        <ele>3.937763</ele>
        <time>2026-08-02T22:15:14.626Z</time>
      </trkpt>
      <trkpt lat="52.352454" lon="6.085347">
        <ele>3.913574</ele>
        <time>2026-08-02T22:15:16.175Z</time>
      </trkpt>
      <trkpt lat="52.352221" lon="6.085607">
        <ele>3.852637</ele>
        <time>2026-08-02T22:15:20.081Z</time>
      </trkpt>
      <trkpt lat="52.351817" lon="6.085907">
        <ele>3.802749</ele>
        <time>2026-08-02T22:15:26.250Z</time>
      </trkpt>
      <trkpt lat="52.351669" lon="6.086167">
        <ele>3.782529</ele>
        <time>2026-08-02T22:15:29.312Z</time>
      </trkpt>
      <trkpt lat="52.351607" lon="6.086493">
        <ele>3.763103</ele>
        <time>2026-08-02T22:15:32.290Z</time>
      </trkpt>
      <trkpt lat="52.351617" lon="6.087064">
        <ele>3.730602</ele>
        <time>2026-08-02T22:15:37.348Z</time>
      </trkpt>
      <trkpt lat="52.351524" lon="6.087518">
        <ele>3.703358</ele>
        <time>2026-08-02T22:15:41.683Z</time>
      </trkpt>
      <trkpt lat="52.351482" lon="6.087964">
        <ele>3.677683</ele>
        <time>2026-08-02T22:15:45.834Z</time>
      </trkpt>
      <trkpt lat="52.351433" lon="6.088182">
        <ele>3.686049</ele>
        <time>2026-08-02T22:15:47.968Z</time>
      </trkpt>
      <trkpt lat="52.351322" lon="6.088336">
        <ele>3.724939</ele>
        <time>2026-08-02T22:15:50.180Z</time>
      </trkpt>
      <trkpt lat="52.350971" lon="6.088544">
        <ele>3.824714</ele>
        <time>2026-08-02T22:15:55.981Z</time>
      </trkpt>
      <trkpt lat="52.350813" lon="6.088674">
        <ele>3.871979</ele>
        <time>2026-08-02T22:15:58.768Z</time>
      </trkpt>
      <trkpt lat="52.350508" lon="6.089006">
        <ele>3.969878</ele>
        <time>2026-08-02T22:16:04.628Z</time>
      </trkpt>
      <trkpt lat="52.350311" lon="6.089323">
        <ele>4.043711</ele>
        <time>2026-08-02T22:16:09.080Z</time>
      </trkpt>
      <trkpt lat="52.350248" lon="6.089488">
        <ele>4.075480</ele>
        <time>2026-08-02T22:16:11.003Z</time>
      </trkpt>
      <trkpt lat="52.350000" lon="6.090340">
        <ele>4.207788</ele>
        <time>2026-08-02T22:16:20.520Z</time>
      </trkpt>
      <trkpt lat="52.349837" lon="6.090949">
        <ele>4.286323</ele>
        <time>2026-08-02T22:16:27.248Z</time>
      </trkpt>
      <trkpt lat="52.349677" lon="6.091415">
        <ele>4.349466</ele>
        <time>2026-08-02T22:16:32.471Z</time>
      </trkpt>
      <trkpt lat="52.349604" lon="6.091631">
        <ele>4.378624</ele>
        <time>2026-08-02T22:16:34.797Z</time>
      </trkpt>
      <trkpt lat="52.349260" lon="6.092640">
        <ele>4.503841</ele>
        <time>2026-08-02T22:16:45.133Z</time>
      </trkpt>
      <trkpt lat="52.349160" lon="6.092850">
        <ele>4.513820</ele>
        <time>2026-08-02T22:16:47.548Z</time>
      </trkpt>
      <trkpt lat="52.349000" lon="6.092980">
        <ele>4.524779</ele>
        <time>2026-08-02T22:16:50.233Z</time>
      </trkpt>
      <trkpt lat="52.348730" lon="6.093120">
        <ele>4.542154</ele>
        <time>2026-08-02T22:16:54.422Z</time>
      </trkpt>
      <trkpt lat="52.348140" lon="6.093470">
        <ele>4.580654</ele>
        <time>2026-08-02T22:17:03.829Z</time>
      </trkpt>
      <trkpt lat="52.347792" lon="6.093773">
        <ele>4.604836</ele>
        <time>2026-08-02T22:17:09.882Z</time>
      </trkpt>
      <trkpt lat="52.347778" lon="6.093783">
        <ele>4.605773</ele>
        <time>2026-08-02T22:17:10.121Z</time>
      </trkpt>
      <trkpt lat="52.347306" lon="6.094178">
        <ele>4.596986</ele>
        <time>2026-08-02T22:17:18.465Z</time>
      </trkpt>
      <trkpt lat="52.346627" lon="6.094886">
        <ele>4.576848</ele>
        <time>2026-08-02T22:17:30.500Z</time>
      </trkpt>
      <trkpt lat="52.345913" lon="6.095605">
        <ele>4.388233</ele>
        <time>2026-08-02T22:17:42.032Z</time>
      </trkpt>
      <trkpt lat="52.345082" lon="6.096503">
        <ele>3.846486</ele>
        <time>2026-08-02T22:17:54.848Z</time>
      </trkpt>
      <trkpt lat="52.344930" lon="6.096723">
        <ele>3.736098</ele>
        <time>2026-08-02T22:17:57.431Z</time>
      </trkpt>
      <trkpt lat="52.344864" lon="6.096878">
        <ele>3.673301</ele>
        <time>2026-08-02T22:17:58.937Z</time>
      </trkpt>
      <trkpt lat="52.344736" lon="6.097183">
        <ele>3.586274</ele>
        <time>2026-08-02T22:18:01.883Z</time>
      </trkpt>
      <trkpt lat="52.344496" lon="6.097442">
        <ele>3.590236</ele>
        <time>2026-08-02T22:18:05.782Z</time>
      </trkpt>
      <trkpt lat="52.344295" lon="6.097534">
        <ele>3.593113</ele>
        <time>2026-08-02T22:18:08.745Z</time>
      </trkpt>
      <trkpt lat="52.343999" lon="6.097520">
        <ele>3.597195</ele>
        <time>2026-08-02T22:18:13.130Z</time>
      </trkpt>
      <trkpt lat="52.343910" lon="6.097499">
        <ele>3.598434</ele>
        <time>2026-08-02T22:18:14.533Z</time>
      </trkpt>
      <trkpt lat="52.343630" lon="6.097398">
        <ele>3.602386</ele>
        <time>2026-08-02T22:18:19.054Z</time>
      </trkpt>
      <trkpt lat="52.343480" lon="6.097308">
        <ele>3.604588</ele>
        <time>2026-08-02T22:18:21.604Z</time>
      </trkpt>
      <trkpt lat="52.342970" lon="6.096886">
        <ele>3.640402</ele>
        <time>2026-08-02T22:18:30.910Z</time>
      </trkpt>
      <trkpt lat="52.342816" lon="6.096759">
        <ele>3.671803</ele>
        <time>2026-08-02T22:18:33.777Z</time>
      </trkpt>
      <trkpt lat="52.342303" lon="6.096338">
        <ele>3.776303</ele>
        <time>2026-08-02T22:18:43.059Z</time>
      </trkpt>
      <trkpt lat="52.341911" lon="6.096016">
        <ele>3.856170</ele>
        <time>2026-08-02T22:18:49.783Z</time>
      </trkpt>
      <trkpt lat="52.340950" lon="6.095210">
        <ele>3.850091</ele>
        <time>2026-08-02T22:19:05.344Z</time>
      </trkpt>
      <trkpt lat="52.340550" lon="6.094900">
        <ele>3.788741</ele>
        <time>2026-08-02T22:19:11.531Z</time>
      </trkpt>
      <trkpt lat="52.340287" lon="6.094788">
        <ele>3.751070</ele>
        <time>2026-08-02T22:19:15.400Z</time>
      </trkpt>
      <trkpt lat="52.339793" lon="6.094708">
        <ele>3.687752</ele>
        <time>2026-08-02T22:19:22.504Z</time>
      </trkpt>
      <trkpt lat="52.339212" lon="6.094460">
        <ele>3.679240</ele>
        <time>2026-08-02T22:19:31.113Z</time>
      </trkpt>
      <trkpt lat="52.338399" lon="6.094441">
        <ele>3.667714</ele>
        <time>2026-08-02T22:19:43.073Z</time>
      </trkpt>
      <trkpt lat="52.338113" lon="6.094397">
        <ele>3.663642</ele>
        <time>2026-08-02T22:19:47.440Z</time>
      </trkpt>
      <trkpt lat="52.337780" lon="6.094290">
        <ele>3.814991</ele>
        <time>2026-08-02T22:19:52.716Z</time>
      </trkpt>
      <trkpt lat="52.337311" lon="6.093976">
        <ele>4.084830</ele>
        <time>2026-08-02T22:20:01.271Z</time>
      </trkpt>
      <trkpt lat="52.336738" lon="6.093360">
        <ele>4.449902</ele>
        <time>2026-08-02T22:20:13.692Z</time>
      </trkpt>
      <trkpt lat="52.336306" lon="6.092932">
        <ele>4.622791</ele>
        <time>2026-08-02T22:20:22.485Z</time>
      </trkpt>
      <trkpt lat="52.335664" lon="6.092491">
        <ele>4.630752</ele>
        <time>2026-08-02T22:20:33.468Z</time>
      </trkpt>
      <trkpt lat="52.334229" lon="6.091842">
        <ele>4.486513</ele>
        <time>2026-08-02T22:20:53.761Z</time>
      </trkpt>
      <trkpt lat="52.334046" lon="6.091761">
        <ele>4.435111</ele>
        <time>2026-08-02T22:20:56.422Z</time>
      </trkpt>
      <trkpt lat="52.333427" lon="6.091508">
        <ele>4.262118</ele>
        <time>2026-08-02T22:21:05.390Z</time>
      </trkpt>
      <trkpt lat="52.332916" lon="6.091297">
        <ele>4.101113</ele>
        <time>2026-08-02T22:21:12.850Z</time>
      </trkpt>
      <trkpt lat="52.332259" lon="6.091171">
        <ele>3.827165</ele>
        <time>2026-08-02T22:21:21.594Z</time>
      </trkpt>
      <trkpt lat="52.332020" lon="6.091075">
        <ele>3.725249</ele>
        <time>2026-08-02T22:21:24.769Z</time>
      </trkpt>
      <trkpt lat="52.331432" lon="6.090696">
        <ele>3.463529</ele>
        <time>2026-08-02T22:21:33.169Z</time>
      </trkpt>
      <trkpt lat="52.330685" lon="6.090104">
        <ele>3.351335</ele>
        <time>2026-08-02T22:21:44.776Z</time>
      </trkpt>
      <trkpt lat="52.330100" lon="6.089338">
        <ele>3.289740</ele>
        <time>2026-08-02T22:21:55.950Z</time>
      </trkpt>
      <trkpt lat="52.329867" lon="6.089077">
        <ele>3.266527</ele>
        <time>2026-08-02T22:22:00.275Z</time>
      </trkpt>
      <trkpt lat="52.329469" lon="6.088817">
        <ele>3.349341</ele>
        <time>2026-08-02T22:22:06.921Z</time>
      </trkpt>
      <trkpt lat="52.328650" lon="6.088386">
        <ele>3.561458</ele>
        <time>2026-08-02T22:22:20.522Z</time>
      </trkpt>
      <trkpt lat="52.327763" lon="6.088025">
        <ele>3.804883</ele>
        <time>2026-08-02T22:22:35.355Z</time>
      </trkpt>
      <trkpt lat="52.327115" lon="6.087856">
        <ele>4.002079</ele>
        <time>2026-08-02T22:22:46.406Z</time>
      </trkpt>
      <trkpt lat="52.326328" lon="6.087740">
        <ele>4.239547</ele>
        <time>2026-08-02T22:22:58.813Z</time>
      </trkpt>
      <trkpt lat="52.326186" lon="6.087723">
        <ele>4.253265</ele>
        <time>2026-08-02T22:23:00.970Z</time>
      </trkpt>
      <trkpt lat="52.325748" lon="6.087683">
        <ele>4.282957</ele>
        <time>2026-08-02T22:23:07.517Z</time>
      </trkpt>
      <trkpt lat="52.325575" lon="6.087700">
        <ele>4.294687</ele>
        <time>2026-08-02T22:23:10.061Z</time>
      </trkpt>
      <trkpt lat="52.324843" lon="6.087983">
        <ele>4.345596</ele>
        <time>2026-08-02T22:23:21.030Z</time>
      </trkpt>
      <trkpt lat="52.324279" lon="6.088246">
        <ele>4.392351</ele>
        <time>2026-08-02T22:23:30.150Z</time>
      </trkpt>
      <trkpt lat="52.323637" lon="6.088654">
        <ele>4.456536</ele>
        <time>2026-08-02T22:23:40.930Z</time>
      </trkpt>
      <trkpt lat="52.322809" lon="6.089241">
        <ele>4.536108</ele>
        <time>2026-08-02T22:23:54.399Z</time>
      </trkpt>
      <trkpt lat="52.322592" lon="6.089322">
        <ele>4.542311</ele>
        <time>2026-08-02T22:23:57.675Z</time>
      </trkpt>
      <trkpt lat="52.322318" lon="6.089328">
        <ele>4.549948</ele>
        <time>2026-08-02T22:24:01.746Z</time>
      </trkpt>
      <trkpt lat="52.321323" lon="6.089119">
        <ele>4.577908</ele>
        <time>2026-08-02T22:24:16.879Z</time>
      </trkpt>
      <trkpt lat="52.321100" lon="6.089090">
        <ele>4.584143</ele>
        <time>2026-08-02T22:24:20.267Z</time>
      </trkpt>
      <trkpt lat="52.320880" lon="6.089123">
        <ele>4.530672</ele>
        <time>2026-08-02T22:24:23.539Z</time>
      </trkpt>
      <trkpt lat="52.320370" lon="6.089287">
        <ele>4.401034</ele>
        <time>2026-08-02T22:24:30.968Z</time>
      </trkpt>
      <trkpt lat="52.320141" lon="6.089243">
        <ele>4.343525</ele>
        <time>2026-08-02T22:24:34.152Z</time>
      </trkpt>
      <trkpt lat="52.318860" lon="6.088677">
        <ele>4.039877</ele>
        <time>2026-08-02T22:24:52.011Z</time>
      </trkpt>
      <trkpt lat="52.317814" lon="6.088031">
        <ele>3.822857</ele>
        <time>2026-08-02T22:25:07.840Z</time>
      </trkpt>
      <trkpt lat="52.317456" lon="6.087919">
        <ele>3.853364</ele>
        <time>2026-08-02T22:25:13.292Z</time>
      </trkpt>
      <trkpt lat="52.316533" lon="6.087591">
        <ele>4.208751</ele>
        <time>2026-08-02T22:25:28.936Z</time>
      </trkpt>
      <trkpt lat="52.316264" lon="6.087512">
        <ele>4.311582</ele>
        <time>2026-08-02T22:25:33.596Z</time>
      </trkpt>
      <trkpt lat="52.315851" lon="6.087459">
        <ele>4.463655</ele>
        <time>2026-08-02T22:25:40.583Z</time>
      </trkpt>
      <trkpt lat="52.315693" lon="6.087513">
        <ele>4.468540</ele>
        <time>2026-08-02T22:25:43.268Z</time>
      </trkpt>
      <trkpt lat="52.315590" lon="6.087588">
        <ele>4.471952</ele>
        <time>2026-08-02T22:25:45.131Z</time>
      </trkpt>
      <trkpt lat="52.315226" lon="6.087972">
        <ele>4.485061</ele>
        <time>2026-08-02T22:25:52.078Z</time>
      </trkpt>
      <trkpt lat="52.314769" lon="6.088326">
        <ele>4.500364</ele>
        <time>2026-08-02T22:25:59.460Z</time>
      </trkpt>
      <trkpt lat="52.314280" lon="6.088626">
        <ele>4.516169</ele>
        <time>2026-08-02T22:26:06.584Z</time>
      </trkpt>
      <trkpt lat="52.313451" lon="6.089376">
        <ele>4.481937</ele>
        <time>2026-08-02T22:26:19.701Z</time>
      </trkpt>
      <trkpt lat="52.313166" lon="6.089570">
        <ele>4.469581</ele>
        <time>2026-08-02T22:26:24.248Z</time>
      </trkpt>
      <trkpt lat="52.312630" lon="6.089817">
        <ele>4.447291</ele>
        <time>2026-08-02T22:26:32.890Z</time>
      </trkpt>
      <trkpt lat="52.311760" lon="6.090390">
        <ele>4.661571</ele>
        <time>2026-08-02T22:26:48.016Z</time>
      </trkpt>
      <trkpt lat="52.310835" lon="6.091108">
        <ele>4.896071</ele>
        <time>2026-08-02T22:27:04.243Z</time>
      </trkpt>
      <trkpt lat="52.309924" lon="6.091679">
        <ele>5.043368</ele>
        <time>2026-08-02T22:27:19.284Z</time>
      </trkpt>
      <trkpt lat="52.309748" lon="6.091759">
        <ele>5.070948</ele>
        <time>2026-08-02T22:27:22.115Z</time>
      </trkpt>
      <trkpt lat="52.309388" lon="6.091686">
        <ele>5.125717</ele>
        <time>2026-08-02T22:27:27.664Z</time>
      </trkpt>
      <trkpt lat="52.308977" lon="6.091594">
        <ele>5.118026</ele>
        <time>2026-08-02T22:27:33.947Z</time>
      </trkpt>
      <trkpt lat="52.307690" lon="6.091440">
        <ele>4.966644</ele>
        <time>2026-08-02T22:27:52.527Z</time>
      </trkpt>
      <trkpt lat="52.307242" lon="6.091439">
        <ele>4.896504</ele>
        <time>2026-08-02T22:27:58.798Z</time>
      </trkpt>
      <trkpt lat="52.306793" lon="6.091495">
        <ele>4.804461</ele>
        <time>2026-08-02T22:28:05.141Z</time>
      </trkpt>
      <trkpt lat="52.306250" lon="6.091468">
        <ele>4.693420</ele>
        <time>2026-08-02T22:28:12.695Z</time>
      </trkpt>
      <trkpt lat="52.305799" lon="6.091389">
        <ele>4.600707</ele>
        <time>2026-08-02T22:28:19.047Z</time>
      </trkpt>
      <trkpt lat="52.305555" lon="6.091374">
        <ele>4.555210</ele>
        <time>2026-08-02T22:28:22.491Z</time>
      </trkpt>
      <trkpt lat="52.305155" lon="6.091460">
        <ele>4.491567</ele>
        <time>2026-08-02T22:28:28.179Z</time>
      </trkpt>
      <trkpt lat="52.304430" lon="6.091788">
        <ele>4.372903</ele>
        <time>2026-08-02T22:28:38.677Z</time>
      </trkpt>
      <trkpt lat="52.304213" lon="6.091919">
        <ele>4.336413</ele>
        <time>2026-08-02T22:28:42.014Z</time>
      </trkpt>
      <trkpt lat="52.303928" lon="6.092122">
        <ele>4.287375</ele>
        <time>2026-08-02T22:28:46.593Z</time>
      </trkpt>
      <trkpt lat="52.303780" lon="6.092280">
        <ele>4.297712</ele>
        <time>2026-08-02T22:28:49.222Z</time>
      </trkpt>
      <trkpt lat="52.303670" lon="6.092450">
        <ele>4.307760</ele>
        <time>2026-08-02T22:28:51.445Z</time>
      </trkpt>
      <trkpt lat="52.303561" lon="6.092723">
        <ele>4.320996</ele>
        <time>2026-08-02T22:28:54.385Z</time>
      </trkpt>
      <trkpt lat="52.303412" lon="6.093085">
        <ele>4.338710</ele>
        <time>2026-08-02T22:28:58.395Z</time>
      </trkpt>
      <trkpt lat="52.303268" lon="6.093281">
        <ele>4.351148</ele>
        <time>2026-08-02T22:29:01.223Z</time>
      </trkpt>
      <trkpt lat="52.303231" lon="6.093306">
        <ele>4.353806</ele>
        <time>2026-08-02T22:29:01.839Z</time>
      </trkpt>
      <trkpt lat="52.303083" lon="6.093402">
        <ele>4.364376</ele>
        <time>2026-08-02T22:29:04.271Z</time>
      </trkpt>
      <trkpt lat="52.302871" lon="6.093458">
        <ele>4.378633</ele>
        <time>2026-08-02T22:29:07.592Z</time>
      </trkpt>
      <trkpt lat="52.302157" lon="6.093480">
        <ele>4.447756</ele>
        <time>2026-08-02T22:29:18.740Z</time>
      </trkpt>
      <trkpt lat="52.301514" lon="6.093660">
        <ele>4.537524</ele>
        <time>2026-08-02T22:29:28.733Z</time>
      </trkpt>
      <trkpt lat="52.301240" lon="6.093694">
        <ele>4.575336</ele>
        <time>2026-08-02T22:29:32.969Z</time>
      </trkpt>
      <trkpt lat="52.300334" lon="6.093743">
        <ele>4.694094</ele>
        <time>2026-08-02T22:29:46.788Z</time>
      </trkpt>
      <trkpt lat="52.300068" lon="6.093635">
        <ele>4.726985</ele>
        <time>2026-08-02T22:29:51.047Z</time>
      </trkpt>
      <trkpt lat="52.299783" lon="6.093568">
        <ele>4.761538</ele>
        <time>2026-08-02T22:29:55.531Z</time>
      </trkpt>
      <trkpt lat="52.299613" lon="6.093646">
        <ele>4.782727</ele>
        <time>2026-08-02T22:29:58.303Z</time>
      </trkpt>
      <trkpt lat="52.299248" lon="6.094155">
        <ele>4.840295</ele>
        <time>2026-08-02T22:30:05.750Z</time>
      </trkpt>
      <trkpt lat="52.299163" lon="6.094231">
        <ele>4.851921</ele>
        <time>2026-08-02T22:30:07.219Z</time>
      </trkpt>
      <trkpt lat="52.298500" lon="6.094430">
        <ele>4.828726</ele>
        <time>2026-08-02T22:30:17.190Z</time>
      </trkpt>
      <trkpt lat="52.298000" lon="6.094480">
        <ele>4.790548</ele>
        <time>2026-08-02T22:30:24.326Z</time>
      </trkpt>
      <trkpt lat="52.297830" lon="6.094590">
        <ele>4.776614</ele>
        <time>2026-08-02T22:30:26.907Z</time>
      </trkpt>
      <trkpt lat="52.297410" lon="6.095000">
        <ele>4.739334</ele>
        <time>2026-08-02T22:30:33.835Z</time>
      </trkpt>
      <trkpt lat="52.295933" lon="6.095904">
        <ele>4.739835</ele>
        <time>2026-08-02T22:30:57.325Z</time>
      </trkpt>
      <trkpt lat="52.295590" lon="6.096080">
        <ele>4.750504</ele>
        <time>2026-08-02T22:31:02.685Z</time>
      </trkpt>
      <trkpt lat="52.295316" lon="6.096368">
        <ele>4.819280</ele>
        <time>2026-08-02T22:31:07.594Z</time>
      </trkpt>
      <trkpt lat="52.295242" lon="6.096477">
        <ele>4.840309</ele>
        <time>2026-08-02T22:31:09.155Z</time>
      </trkpt>
      <trkpt lat="52.295149" lon="6.096565">
        <ele>4.862997</ele>
        <time>2026-08-02T22:31:10.794Z</time>
      </trkpt>
      <trkpt lat="52.295006" lon="6.096622">
        <ele>4.894075</ele>
        <time>2026-08-02T22:31:13.091Z</time>
      </trkpt>
      <trkpt lat="52.294709" lon="6.096624">
        <ele>4.956785</ele>
        <time>2026-08-02T22:31:17.922Z</time>
      </trkpt>
      <trkpt lat="52.294545" lon="6.096670">
        <ele>4.991918</ele>
        <time>2026-08-02T22:31:20.679Z</time>
      </trkpt>
      <trkpt lat="52.294365" lon="6.096821">
        <ele>5.034634</ele>
        <time>2026-08-02T22:31:23.992Z</time>
      </trkpt>
      <trkpt lat="52.294093" lon="6.097424">
        <ele>5.115405</ele>
        <time>2026-08-02T22:31:31.170Z</time>
      </trkpt>
      <trkpt lat="52.294030" lon="6.097480">
        <ele>5.106642</ele>
        <time>2026-08-02T22:31:32.284Z</time>
      </trkpt>
      <trkpt lat="52.293864" lon="6.097522">
        <ele>5.086114</ele>
        <time>2026-08-02T22:31:34.867Z</time>
      </trkpt>
      <trkpt lat="52.293647" lon="6.097470">
        <ele>5.059312</ele>
        <time>2026-08-02T22:31:38.207Z</time>
      </trkpt>
      <trkpt lat="52.292732" lon="6.097148">
        <ele>4.944931</ele>
        <time>2026-08-02T22:31:51.473Z</time>
      </trkpt>
      <trkpt lat="52.292589" lon="6.097142">
        <ele>4.927449</ele>
        <time>2026-08-02T22:31:53.370Z</time>
      </trkpt>
      <trkpt lat="52.292437" lon="6.097213">
        <ele>4.908130</ele>
        <time>2026-08-02T22:31:55.489Z</time>
      </trkpt>
      <trkpt lat="52.292361" lon="6.097361">
        <ele>4.889071</ele>
        <time>2026-08-02T22:31:57.076Z</time>
      </trkpt>
      <trkpt lat="52.292309" lon="6.097626">
        <ele>4.855917</ele>
        <time>2026-08-02T22:31:59.361Z</time>
      </trkpt>
      <trkpt lat="52.292187" lon="6.098535">
        <ele>4.745051</ele>
        <time>2026-08-02T22:32:07.157Z</time>
      </trkpt>
      <trkpt lat="52.292156" lon="6.098872">
        <ele>4.704453</ele>
        <time>2026-08-02T22:32:10.052Z</time>
      </trkpt>
      <trkpt lat="52.292148" lon="6.099476">
        <ele>4.632481</ele>
        <time>2026-08-02T22:32:15.327Z</time>
      </trkpt>
      <trkpt lat="52.292112" lon="6.099566">
        <ele>4.619670</ele>
        <time>2026-08-02T22:32:16.288Z</time>
      </trkpt>
      <trkpt lat="52.291640" lon="6.100260">
        <ele>4.592392</ele>
        <time>2026-08-02T22:32:25.836Z</time>
      </trkpt>
      <trkpt lat="52.291529" lon="6.100399">
        <ele>4.612786</ele>
        <time>2026-08-02T22:32:28.009Z</time>
      </trkpt>
      <trkpt lat="52.291309" lon="6.100590">
        <ele>4.649118</ele>
        <time>2026-08-02T22:32:31.965Z</time>
      </trkpt>
      <trkpt lat="52.290990" lon="6.100780">
        <ele>4.698638</ele>
        <time>2026-08-02T22:32:37.359Z</time>
      </trkpt>
      <trkpt lat="52.290187" lon="6.100997">
        <ele>4.815896</ele>
        <time>2026-08-02T22:32:49.913Z</time>
      </trkpt>
      <trkpt lat="52.290005" lon="6.101059">
        <ele>4.832829</ele>
        <time>2026-08-02T22:32:52.735Z</time>
      </trkpt>
      <trkpt lat="52.289384" lon="6.101383">
        <ele>4.892202</ele>
        <time>2026-08-02T22:33:02.550Z</time>
      </trkpt>
      <trkpt lat="52.288826" lon="6.101503">
        <ele>4.943465</ele>
        <time>2026-08-02T22:33:10.952Z</time>
      </trkpt>
      <trkpt lat="52.287722" lon="6.102090">
        <ele>5.069868</ele>
        <time>2026-08-02T22:33:29.135Z</time>
      </trkpt>
      <trkpt lat="52.287130" lon="6.102416">
        <ele>5.143117</ele>
        <time>2026-08-02T22:33:38.607Z</time>
      </trkpt>
      <trkpt lat="52.286825" lon="6.102591">
        <ele>5.181020</ele>
        <time>2026-08-02T22:33:43.458Z</time>
      </trkpt>
      <trkpt lat="52.286622" lon="6.102824">
        <ele>5.199897</ele>
        <time>2026-08-02T22:33:47.142Z</time>
      </trkpt>
      <trkpt lat="52.286545" lon="6.102937">
        <ele>5.206374</ele>
        <time>2026-08-02T22:33:48.671Z</time>
      </trkpt>
      <trkpt lat="52.286387" lon="6.103097">
        <ele>5.218009</ele>
        <time>2026-08-02T22:33:51.416Z</time>
      </trkpt>
      <trkpt lat="52.286228" lon="6.103196">
        <ele>5.228659</ele>
        <time>2026-08-02T22:33:53.930Z</time>
      </trkpt>
      <trkpt lat="52.285482" lon="6.103452">
        <ele>5.276375</ele>
        <time>2026-08-02T22:34:05.396Z</time>
      </trkpt>
      <trkpt lat="52.285156" lon="6.103635">
        <ele>5.297952</ele>
        <time>2026-08-02T22:34:10.661Z</time>
      </trkpt>
      <trkpt lat="52.284692" lon="6.103930">
        <ele>5.316519</ele>
        <time>2026-08-02T22:34:18.368Z</time>
      </trkpt>
      <trkpt lat="52.284485" lon="6.104023">
        <ele>5.323980</ele>
        <time>2026-08-02T22:34:21.590Z</time>
      </trkpt>
      <trkpt lat="52.283799" lon="6.104331">
        <ele>5.348701</ele>
        <time>2026-08-02T22:34:32.136Z</time>
      </trkpt>
      <trkpt lat="52.283739" lon="6.104385">
        <ele>5.351082</ele>
        <time>2026-08-02T22:34:33.155Z</time>
      </trkpt>
      <trkpt lat="52.283483" lon="6.104647">
        <ele>5.361577</ele>
        <time>2026-08-02T22:34:37.622Z</time>
      </trkpt>
      <trkpt lat="52.283321" lon="6.104772">
        <ele>5.352480</ele>
        <time>2026-08-02T22:34:40.238Z</time>
      </trkpt>
      <trkpt lat="52.282891" lon="6.104965">
        <ele>5.315208</ele>
        <time>2026-08-02T22:34:46.660Z</time>
      </trkpt>
      <trkpt lat="52.282431" lon="6.105059">
        <ele>5.276460</ele>
        <time>2026-08-02T22:34:53.242Z</time>
      </trkpt>
      <trkpt lat="52.281398" lon="6.105162">
        <ele>5.228544</ele>
        <time>2026-08-02T22:35:08.495Z</time>
      </trkpt>
      <trkpt lat="52.280481" lon="6.105231">
        <ele>5.280503</ele>
        <time>2026-08-02T22:35:22.281Z</time>
      </trkpt>
      <trkpt lat="52.280313" lon="6.105295">
        <ele>5.290267</ele>
        <time>2026-08-02T22:35:24.889Z</time>
      </trkpt>
      <trkpt lat="52.280119" lon="6.105455">
        <ele>5.302567</ele>
        <time>2026-08-02T22:35:28.190Z</time>
      </trkpt>
      <trkpt lat="52.279965" lon="6.105628">
        <ele>5.313144</ele>
        <time>2026-08-02T22:35:31.009Z</time>
      </trkpt>
      <trkpt lat="52.279884" lon="6.105767">
        <ele>5.324544</ele>
        <time>2026-08-02T22:35:32.786Z</time>
      </trkpt>
      <trkpt lat="52.279696" lon="6.106386">
        <ele>5.371130</ele>
        <time>2026-08-02T22:35:39.171Z</time>
      </trkpt>
      <trkpt lat="52.279604" lon="6.106580">
        <ele>5.387676</ele>
        <time>2026-08-02T22:35:41.448Z</time>
      </trkpt>
      <trkpt lat="52.279075" lon="6.107247">
        <ele>5.461291</ele>
        <time>2026-08-02T22:35:51.657Z</time>
      </trkpt>
      <trkpt lat="52.277670" lon="6.109196">
        <ele>5.709383</ele>
        <time>2026-08-02T22:36:20.360Z</time>
      </trkpt>
      <trkpt lat="52.277522" lon="6.109375">
        <ele>5.735705</ele>
        <time>2026-08-02T22:36:23.162Z</time>
      </trkpt>
      <trkpt lat="52.277278" lon="6.109557">
        <ele>5.764572</ele>
        <time>2026-08-02T22:36:27.178Z</time>
      </trkpt>
      <trkpt lat="52.276834" lon="6.109666">
        <ele>5.674718</ele>
        <time>2026-08-02T22:36:33.752Z</time>
      </trkpt>
      <trkpt lat="52.276576" lon="6.109700">
        <ele>5.622918</ele>
        <time>2026-08-02T22:36:37.460Z</time>
      </trkpt>
      <trkpt lat="52.276503" lon="6.109759">
        <ele>5.606620</ele>
        <time>2026-08-02T22:36:38.593Z</time>
      </trkpt>
      <trkpt lat="52.276399" lon="6.109962">
        <ele>5.574200</ele>
        <time>2026-08-02T22:36:40.853Z</time>
      </trkpt>
      <trkpt lat="52.276283" lon="6.110295">
        <ele>5.527279</ele>
        <time>2026-08-02T22:36:44.113Z</time>
      </trkpt>
      <trkpt lat="52.276144" lon="6.110901">
        <ele>5.448032</ele>
        <time>2026-08-02T22:36:49.564Z</time>
      </trkpt>
      <trkpt lat="52.276055" lon="6.111122">
        <ele>5.415636</ele>
        <time>2026-08-02T22:36:51.761Z</time>
      </trkpt>
      <trkpt lat="52.275268" lon="6.112071">
        <ele>5.215147</ele>
        <time>2026-08-02T22:37:05.085Z</time>
      </trkpt>
      <trkpt lat="52.274986" lon="6.112390">
        <ele>5.144795</ele>
        <time>2026-08-02T22:37:09.893Z</time>
      </trkpt>
      <trkpt lat="52.274632" lon="6.112712">
        <ele>5.061688</ele>
        <time>2026-08-02T22:37:15.748Z</time>
      </trkpt>
      <trkpt lat="52.273767" lon="6.113439">
        <ele>5.145417</ele>
        <time>2026-08-02T22:37:30.811Z</time>
      </trkpt>
      <trkpt lat="52.273125" lon="6.113929">
        <ele>5.230046</ele>
        <time>2026-08-02T22:37:41.837Z</time>
      </trkpt>
      <trkpt lat="52.272739" lon="6.114092">
        <ele>5.246582</ele>
        <time>2026-08-02T22:37:47.874Z</time>
      </trkpt>
      <trkpt lat="52.272413" lon="6.114229">
        <ele>5.229084</ele>
        <time>2026-08-02T22:37:52.782Z</time>
      </trkpt>
      <trkpt lat="52.271897" lon="6.114484">
        <ele>5.201061</ele>
        <time>2026-08-02T22:38:00.599Z</time>
      </trkpt>
      <trkpt lat="52.271482" lon="6.114806">
        <ele>5.177180</ele>
        <time>2026-08-02T22:38:07.221Z</time>
      </trkpt>
      <trkpt lat="52.270934" lon="6.115246">
        <ele>5.162791</ele>
        <time>2026-08-02T22:38:16.076Z</time>
      </trkpt>
      <trkpt lat="52.270080" lon="6.115766">
        <ele>5.163579</ele>
        <time>2026-08-02T22:38:29.969Z</time>
      </trkpt>
      <trkpt lat="52.269498" lon="6.116288">
        <ele>5.155478</ele>
        <time>2026-08-02T22:38:39.746Z</time>
      </trkpt>
      <trkpt lat="52.269050" lon="6.116652">
        <ele>5.114549</ele>
        <time>2026-08-02T22:38:46.922Z</time>
      </trkpt>
      <trkpt lat="52.267956" lon="6.117042">
        <ele>5.022950</ele>
        <time>2026-08-02T22:39:02.934Z</time>
      </trkpt>
      <trkpt lat="52.267043" lon="6.117334">
        <ele>5.020001</ele>
        <time>2026-08-02T22:39:16.676Z</time>
      </trkpt>
      <trkpt lat="52.266807" lon="6.117410">
        <ele>5.020864</ele>
        <time>2026-08-02T22:39:20.266Z</time>
      </trkpt>
      <trkpt lat="52.265798" lon="6.117564">
        <ele>5.051266</ele>
        <time>2026-08-02T22:39:35.410Z</time>
      </trkpt>
      <trkpt lat="52.265473" lon="6.117706">
        <ele>5.081336</ele>
        <time>2026-08-02T22:39:40.574Z</time>
      </trkpt>
      <trkpt lat="52.265283" lon="6.117866">
        <ele>5.100441</ele>
        <time>2026-08-02T22:39:43.875Z</time>
      </trkpt>
      <trkpt lat="52.264907" lon="6.118367">
        <ele>5.143806</ele>
        <time>2026-08-02T22:39:51.381Z</time>
      </trkpt>
      <trkpt lat="52.264675" lon="6.118788">
        <ele>5.174796</ele>
        <time>2026-08-02T22:39:56.664Z</time>
      </trkpt>
      <trkpt lat="52.264227" lon="6.119895">
        <ele>5.048909</ele>
        <time>2026-08-02T22:40:08.542Z</time>
      </trkpt>
      <trkpt lat="52.263970" lon="6.120537">
        <ele>4.959174</ele>
        <time>2026-08-02T22:40:15.102Z</time>
      </trkpt>
      <trkpt lat="52.263381" lon="6.121894">
        <ele>4.813345</ele>
        <time>2026-08-02T22:40:29.160Z</time>
      </trkpt>
      <trkpt lat="52.262921" lon="6.123034">
        <ele>4.756381</ele>
        <time>2026-08-02T22:40:41.253Z</time>
      </trkpt>
      <trkpt lat="52.262770" lon="6.123400">
        <ele>4.737967</ele>
        <time>2026-08-02T22:40:45.224Z</time>
      </trkpt>
      <trkpt lat="52.262652" lon="6.123609">
        <ele>4.726105</ele>
        <time>2026-08-02T22:40:47.801Z</time>
      </trkpt>
      <trkpt lat="52.262223" lon="6.124048">
        <ele>4.783658</ele>
        <time>2026-08-02T22:40:55.404Z</time>
      </trkpt>
      <trkpt lat="52.262172" lon="6.124096">
        <ele>4.793753</ele>
        <time>2026-08-02T22:40:56.300Z</time>
      </trkpt>
      <trkpt lat="52.261359" lon="6.124981">
        <ele>4.961316</ele>
        <time>2026-08-02T22:41:11.885Z</time>
      </trkpt>
      <trkpt lat="52.260718" lon="6.125703">
        <ele>5.017867</ele>
        <time>2026-08-02T22:41:23.894Z</time>
      </trkpt>
      <trkpt lat="52.260230" lon="6.126240">
        <ele>5.005477</ele>
        <time>2026-08-02T22:41:32.724Z</time>
      </trkpt>
      <trkpt lat="52.259830" lon="6.126599">
        <ele>4.995866</ele>
        <time>2026-08-02T22:41:39.383Z</time>
      </trkpt>
      <trkpt lat="52.259402" lon="6.126902">
        <ele>4.941532</ele>
        <time>2026-08-02T22:41:45.971Z</time>
      </trkpt>
      <trkpt lat="52.259283" lon="6.126967">
        <ele>4.889173</ele>
        <time>2026-08-02T22:41:47.712Z</time>
      </trkpt>
      <trkpt lat="52.259151" lon="6.127039">
        <ele>4.831102</ele>
        <time>2026-08-02T22:41:49.620Z</time>
      </trkpt>
      <trkpt lat="52.258742" lon="6.127194">
        <ele>4.655901</ele>
        <time>2026-08-02T22:41:55.328Z</time>
      </trkpt>
      <trkpt lat="52.258744" lon="6.127276">
        <ele>4.634940</ele>
        <time>2026-08-02T22:41:55.995Z</time>
      </trkpt>
      <trkpt lat="52.258489" lon="6.127379">
        <ele>4.525328</ele>
        <time>2026-08-02T22:41:59.541Z</time>
      </trkpt>
      <trkpt lat="52.258092" lon="6.127546">
        <ele>4.354262</ele>
        <time>2026-08-02T22:42:04.972Z</time>
      </trkpt>
      <trkpt lat="52.257890" lon="6.127694">
        <ele>4.261882</ele>
        <time>2026-08-02T22:42:07.867Z</time>
      </trkpt>
      <trkpt lat="52.257658" lon="6.127918">
        <ele>4.174653</ele>
        <time>2026-08-02T22:42:11.376Z</time>
      </trkpt>
      <trkpt lat="52.257385" lon="6.128347">
        <ele>4.061676</ele>
        <time>2026-08-02T22:42:16.313Z</time>
      </trkpt>
      <trkpt lat="52.257173" lon="6.128873">
        <ele>3.946698</ele>
        <time>2026-08-02T22:42:21.563Z</time>
      </trkpt>
      <trkpt lat="52.256769" lon="6.130115">
        <ele>3.707903</ele>
        <time>2026-08-02T22:42:33.901Z</time>
      </trkpt>
      <trkpt lat="52.256538" lon="6.130739">
        <ele>3.783221</ele>
        <time>2026-08-02T22:42:40.606Z</time>
      </trkpt>
      <trkpt lat="52.256200" lon="6.131393">
        <ele>3.871624</ele>
        <time>2026-08-02T22:42:48.734Z</time>
      </trkpt>
      <trkpt lat="52.255369" lon="6.132655">
        <ele>4.047905</ele>
        <time>2026-08-02T22:43:07.004Z</time>
      </trkpt>
      <trkpt lat="52.255038" lon="6.133145">
        <ele>4.103632</ele>
        <time>2026-08-02T22:43:13.977Z</time>
      </trkpt>
      <trkpt lat="52.254832" lon="6.133511">
        <ele>4.141602</ele>
        <time>2026-08-02T22:43:18.585Z</time>
      </trkpt>
      <trkpt lat="52.254432" lon="6.134324">
        <ele>4.221260</ele>
        <time>2026-08-02T22:43:28.114Z</time>
      </trkpt>
      <trkpt lat="52.254172" lon="6.134852">
        <ele>4.222489</ele>
        <time>2026-08-02T22:43:34.132Z</time>
      </trkpt>
      <trkpt lat="52.253904" lon="6.135586">
        <ele>4.212352</ele>
        <time>2026-08-02T22:43:41.739Z</time>
      </trkpt>
      <trkpt lat="52.253521" lon="6.136824">
        <ele>4.195900</ele>
        <time>2026-08-02T22:43:54.404Z</time>
      </trkpt>
      <trkpt lat="52.253324" lon="6.137574">
        <ele>4.105336</ele>
        <time>2026-08-02T22:44:01.839Z</time>
      </trkpt>
      <trkpt lat="52.253272" lon="6.137879">
        <ele>4.064590</ele>
        <time>2026-08-02T22:44:04.615Z</time>
      </trkpt>
      <trkpt lat="52.253249" lon="6.138525">
        <ele>3.981313</ele>
        <time>2026-08-02T22:44:10.073Z</time>
      </trkpt>
      <trkpt lat="52.253265" lon="6.138865">
        <ele>3.937428</ele>
        <time>2026-08-02T22:44:12.811Z</time>
      </trkpt>
      <trkpt lat="52.253408" lon="6.140068">
        <ele>3.935518</ele>
        <time>2026-08-02T22:44:22.846Z</time>
      </trkpt>
      <trkpt lat="52.253409" lon="6.140682">
        <ele>4.192938</ele>
        <time>2026-08-02T22:44:29.051Z</time>
      </trkpt>
      <trkpt lat="52.253375" lon="6.141098">
        <ele>4.368894</ele>
        <time>2026-08-02T22:44:33.514Z</time>
      </trkpt>
      <trkpt lat="52.253068" lon="6.141857">
        <ele>4.750293</ele>
        <time>2026-08-02T22:44:43.980Z</time>
      </trkpt>
      <trkpt lat="52.252735" lon="6.142676">
        <ele>5.156518</ele>
        <time>2026-08-02T22:44:56.341Z</time>
      </trkpt>
      <trkpt lat="52.252454" lon="6.143239">
        <ele>5.445143</ele>
        <time>2026-08-02T22:45:04.931Z</time>
      </trkpt>
      <trkpt lat="52.252222" lon="6.143779">
        <ele>5.707270</ele>
        <time>2026-08-02T22:45:11.469Z</time>
      </trkpt>
      <trkpt lat="52.251963" lon="6.144292">
        <ele>5.971480</ele>
        <time>2026-08-02T22:45:17.783Z</time>
      </trkpt>
      <trkpt lat="52.251870" lon="6.144554">
        <ele>6.091817</ele>
        <time>2026-08-02T22:45:21.788Z</time>
      </trkpt>
      <trkpt lat="52.251591" lon="6.145476">
        <ele>6.367507</ele>
        <time>2026-08-02T22:45:35.588Z</time>
      </trkpt>
      <trkpt lat="52.251358" lon="6.146248">
        <ele>6.549914</ele>
        <time>2026-08-02T22:45:47.066Z</time>
      </trkpt>
      <trkpt lat="52.251123" lon="6.147015">
        <ele>6.731682</ele>
        <time>2026-08-02T22:45:58.119Z</time>
      </trkpt>
      <trkpt lat="52.250673" lon="6.148529">
        <ele>7.036717</ele>
        <time>2026-08-02T22:46:20.664Z</time>
      </trkpt>
      <trkpt lat="52.250177" lon="6.150169">
        <ele>7.302355</ele>
        <time>2026-08-02T22:46:45.027Z</time>
      </trkpt>
      <trkpt lat="52.249833" lon="6.151313">
        <ele>6.770845</ele>
        <time>2026-08-02T22:46:59.704Z</time>
      </trkpt>
      <trkpt lat="52.249790" lon="6.151440">
        <ele>6.710324</ele>
        <time>2026-08-02T22:47:01.205Z</time>
      </trkpt>
      <trkpt lat="52.249711" lon="6.151629">
        <ele>6.614888</ele>
        <time>2026-08-02T22:47:03.543Z</time>
      </trkpt>
      <trkpt lat="52.249616" lon="6.151833">
        <ele>6.508001</ele>
        <time>2026-08-02T22:47:05.368Z</time>
      </trkpt>
      <trkpt lat="52.249486" lon="6.151991">
        <ele>6.397625</ele>
        <time>2026-08-02T22:47:07.245Z</time>
      </trkpt>
      <trkpt lat="52.248910" lon="6.152507">
        <ele>6.047472</ele>
        <time>2026-08-02T22:47:15.158Z</time>
      </trkpt>
      <trkpt lat="52.247747" lon="6.153558">
        <ele>5.703455</ele>
        <time>2026-08-02T22:47:33.784Z</time>
      </trkpt>
      <trkpt lat="52.247586" lon="6.153596">
        <ele>5.661351</ele>
        <time>2026-08-02T22:47:36.565Z</time>
      </trkpt>
      <trkpt lat="52.247462" lon="6.153683">
        <ele>5.647181</ele>
        <time>2026-08-02T22:47:39.589Z</time>
      </trkpt>
      <trkpt lat="52.247320" lon="6.153838">
        <ele>5.663493</ele>
        <time>2026-08-02T22:47:43.431Z</time>
      </trkpt>
      <trkpt lat="52.247254" lon="6.153906">
        <ele>5.670945</ele>
        <time>2026-08-02T22:47:45.146Z</time>
      </trkpt>
      <trkpt lat="52.247222" lon="6.153970">
        <ele>5.675777</ele>
        <time>2026-08-02T22:47:46.272Z</time>
      </trkpt>
      <trkpt lat="52.247131" lon="6.154278">
        <ele>5.695774</ele>
        <time>2026-08-02T22:47:49.736Z</time>
      </trkpt>
      <trkpt lat="52.246941" lon="6.154900">
        <ele>5.736420</ele>
        <time>2026-08-02T22:47:56.520Z</time>
      </trkpt>
      <trkpt lat="52.246845" lon="6.155126">
        <ele>5.752504</ele>
        <time>2026-08-02T22:47:59.035Z</time>
      </trkpt>
      <trkpt lat="52.246575" lon="6.155427">
        <ele>5.783724</ele>
        <time>2026-08-02T22:48:03.612Z</time>
      </trkpt>
      <trkpt lat="52.246156" lon="6.155818">
        <ele>5.783197</ele>
        <time>2026-08-02T22:48:10.319Z</time>
      </trkpt>
      <trkpt lat="52.245404" lon="6.156208">
        <ele>5.644991</ele>
        <time>2026-08-02T22:48:20.982Z</time>
      </trkpt>
      <trkpt lat="52.244053" lon="6.156894">
        <ele>5.470239</ele>
        <time>2026-08-02T22:48:42.175Z</time>
      </trkpt>
      <trkpt lat="52.241435" lon="6.158218">
        <ele>5.276873</ele>
        <time>2026-08-02T22:49:22.066Z</time>
      </trkpt>
      <trkpt lat="52.239442" lon="6.159219">
        <ele>4.935821</ele>
        <time>2026-08-02T22:49:51.728Z</time>
      </trkpt>
      <trkpt lat="52.238551" lon="6.159662">
        <ele>4.673385</ele>
        <time>2026-08-02T22:50:04.156Z</time>
      </trkpt>
      <trkpt lat="52.238251" lon="6.159653">
        <ele>4.588840</ele>
        <time>2026-08-02T22:50:08.278Z</time>
      </trkpt>
      <trkpt lat="52.236836" lon="6.158910">
        <ele>4.354660</ele>
        <time>2026-08-02T22:50:29.840Z</time>
      </trkpt>
      <trkpt lat="52.236627" lon="6.158849">
        <ele>4.337152</ele>
        <time>2026-08-02T22:50:32.996Z</time>
      </trkpt>
      <trkpt lat="52.235815" lon="6.158737">
        <ele>4.280330</ele>
        <time>2026-08-02T22:50:44.878Z</time>
      </trkpt>
      <trkpt lat="52.234932" lon="6.158549">
        <ele>4.266543</ele>
        <time>2026-08-02T22:50:57.818Z</time>
      </trkpt>
      <trkpt lat="52.234614" lon="6.158571">
        <ele>4.261615</ele>
        <time>2026-08-02T22:51:02.599Z</time>
      </trkpt>
      <trkpt lat="52.234337" lon="6.158676">
        <ele>4.257212</ele>
        <time>2026-08-02T22:51:06.896Z</time>
      </trkpt>
      <trkpt lat="52.233742" lon="6.158976">
        <ele>4.399106</ele>
        <time>2026-08-02T22:51:16.440Z</time>
      </trkpt>
      <trkpt lat="52.232971" lon="6.159017">
        <ele>4.634754</ele>
        <time>2026-08-02T22:51:28.551Z</time>
      </trkpt>
      <trkpt lat="52.231663" lon="6.159380">
        <ele>5.417268</ele>
        <time>2026-08-02T22:51:50.982Z</time>
      </trkpt>
      <trkpt lat="52.231306" lon="6.159479">
        <ele>5.704902</ele>
        <time>2026-08-02T22:51:58.028Z</time>
      </trkpt>
      <trkpt lat="52.231006" lon="6.159610">
        <ele>5.951573</ele>
        <time>2026-08-02T22:52:04.358Z</time>
      </trkpt>
      <trkpt lat="52.230100" lon="6.160157">
        <ele>6.195468</ele>
        <time>2026-08-02T22:52:21.557Z</time>
      </trkpt>
      <trkpt lat="52.229749" lon="6.160352">
        <ele>6.172699</ele>
        <time>2026-08-02T22:52:28.950Z</time>
      </trkpt>
      <trkpt lat="52.229318" lon="6.160621">
        <ele>6.144364</ele>
        <time>2026-08-02T22:52:34.961Z</time>
      </trkpt>
      <trkpt lat="52.229000" lon="6.160873">
        <ele>6.122657</ele>
        <time>2026-08-02T22:52:39.246Z</time>
      </trkpt>
      <trkpt lat="52.228668" lon="6.161064">
        <ele>6.035737</ele>
        <time>2026-08-02T22:52:43.515Z</time>
      </trkpt>
      <trkpt lat="52.224718" lon="6.163195">
        <ele>5.200226</ele>
        <time>2026-08-02T22:53:43.051Z</time>
      </trkpt>
      <trkpt lat="52.224351" lon="6.163323">
        <ele>5.187276</ele>
        <time>2026-08-02T22:53:48.605Z</time>
      </trkpt>
      <trkpt lat="52.224065" lon="6.163527">
        <ele>5.176506</ele>
        <time>2026-08-02T22:53:53.373Z</time>
      </trkpt>
      <trkpt lat="52.223150" lon="6.164680">
        <ele>5.218714</ele>
        <time>2026-08-02T22:54:10.867Z</time>
      </trkpt>
      <trkpt lat="52.222735" lon="6.165335">
        <ele>5.248257</ele>
        <time>2026-08-02T22:54:19.675Z</time>
      </trkpt>
      <trkpt lat="52.222637" lon="6.165428">
        <ele>5.254058</ele>
        <time>2026-08-02T22:54:21.340Z</time>
      </trkpt>
      <trkpt lat="52.222535" lon="6.165465">
        <ele>5.259406</ele>
        <time>2026-08-02T22:54:22.862Z</time>
      </trkpt>
      <trkpt lat="52.222456" lon="6.164961">
        <ele>5.243991</ele>
        <time>2026-08-02T22:54:27.428Z</time>
      </trkpt>
      <trkpt lat="52.222295" lon="6.164065">
        <ele>5.206854</ele>
        <time>2026-08-02T22:54:35.636Z</time>
      </trkpt>
      <trkpt lat="52.221827" lon="6.161357">
        <ele>5.108581</ele>
        <time>2026-08-02T22:55:00.945Z</time>
      </trkpt>
      <trkpt lat="52.221595" lon="6.160543">
        <ele>5.082609</ele>
        <time>2026-08-02T22:55:08.933Z</time>
      </trkpt>
      <trkpt lat="52.220926" lon="6.158691">
        <ele>5.032030</ele>
        <time>2026-08-02T22:55:27.979Z</time>
      </trkpt>
      <trkpt lat="52.219805" lon="6.155626">
        <ele>5.293089</ele>
        <time>2026-08-02T22:56:00.716Z</time>
      </trkpt>
      <trkpt lat="52.219302" lon="6.153499">
        <ele>5.993184</ele>
        <time>2026-08-02T22:56:25.221Z</time>
      </trkpt>
      <trkpt lat="52.219297" lon="6.153407">
        <ele>6.031829</ele>
        <time>2026-08-02T22:56:26.590Z</time>
      </trkpt>
      <trkpt lat="52.219285" lon="6.153140">
        <ele>6.143846</ele>
        <time>2026-08-02T22:56:30.464Z</time>
      </trkpt>
      <trkpt lat="52.219289" lon="6.152833">
        <ele>6.272329</ele>
        <time>2026-08-02T22:56:34.894Z</time>
      </trkpt>
      <trkpt lat="52.219430" lon="6.152349">
        <ele>6.496572</ele>
        <time>2026-08-02T22:56:42.561Z</time>
      </trkpt>
      <trkpt lat="52.219518" lon="6.152106">
        <ele>6.614681</ele>
        <time>2026-08-02T22:56:46.568Z</time>
      </trkpt>
      <trkpt lat="52.219880" lon="6.151321">
        <ele>6.669480</ele>
        <time>2026-08-02T22:56:59.892Z</time>
      </trkpt>
      <trkpt lat="52.220288" lon="6.150774">
        <ele>6.680683</ele>
        <time>2026-08-02T22:57:10.267Z</time>
      </trkpt>
      <trkpt lat="52.220316" lon="6.150659">
        <ele>6.682291</ele>
        <time>2026-08-02T22:57:11.727Z</time>
      </trkpt>
      <trkpt lat="52.220341" lon="6.149863">
        <ele>6.692651</ele>
        <time>2026-08-02T22:57:20.952Z</time>
      </trkpt>
      <trkpt lat="52.220369" lon="6.148992">
        <ele>6.656265</ele>
        <time>2026-08-02T22:57:31.185Z</time>
      </trkpt>
      <trkpt lat="52.220391" lon="6.148128">
        <ele>6.598465</ele>
        <time>2026-08-02T22:57:41.627Z</time>
      </trkpt>
      <trkpt lat="52.220418" lon="6.147067">
        <ele>6.527486</ele>
        <time>2026-08-02T22:57:54.744Z</time>
      </trkpt>
      <trkpt lat="52.220528" lon="6.147066">
        <ele>6.515485</ele>
        <time>2026-08-02T22:57:56.388Z</time>
      </trkpt>
      <trkpt lat="52.221554" lon="6.146999">
        <ele>6.460135</ele>
        <time>2026-08-02T22:58:11.618Z</time>
      </trkpt>
      <trkpt lat="52.221821" lon="6.147122">
        <ele>6.447641</ele>
        <time>2026-08-02T22:58:15.568Z</time>
      </trkpt>
      <trkpt lat="52.221861" lon="6.147068">
        <ele>6.445303</ele>
        <time>2026-08-02T22:58:16.319Z</time>
      </trkpt>
      <trkpt lat="52.221856" lon="6.146963">
        <ele>6.442398</ele>
        <time>2026-08-02T22:58:17.237Z</time>
      </trkpt>
      <trkpt lat="52.221854" lon="6.146860">
        <ele>6.439555</ele>
        <time>2026-08-02T22:58:18.163Z</time>
      </trkpt>
      <trkpt lat="52.221869" lon="6.146800">
        <ele>6.437767</ele>
        <time>2026-08-02T22:58:18.743Z</time>
      </trkpt>
      <trkpt lat="52.221911" lon="6.146784">
        <ele>6.435824</ele>
        <time>2026-08-02T22:58:19.354Z</time>
      </trkpt>
      <trkpt lat="52.222382" lon="6.146676">
        <ele>6.436237</ele>
        <time>2026-08-02T22:58:26.322Z</time>
      </trkpt>
      <trkpt lat="52.222857" lon="6.146535">
        <ele>6.518350</ele>
        <time>2026-08-02T22:58:33.698Z</time>
      </trkpt>
      <trkpt lat="52.223048" lon="6.146610">
        <ele>6.551763</ele>
        <time>2026-08-02T22:58:36.748Z</time>
      </trkpt>
      <trkpt lat="52.223215" lon="6.146554">
        <ele>6.580759</ele>
        <time>2026-08-02T22:58:39.389Z</time>
      </trkpt>
      <trkpt lat="52.223916" lon="6.146287">
        <ele>6.703189</ele>
        <time>2026-08-02T22:58:50.857Z</time>
      </trkpt>
      <trkpt lat="52.225109" lon="6.145710">
        <ele>6.665369</ele>
        <time>2026-08-02T22:59:10.363Z</time>
      </trkpt>
      <trkpt lat="52.225762" lon="6.145298">
        <ele>6.621430</ele>
        <time>2026-08-02T22:59:19.727Z</time>
      </trkpt>
      <trkpt lat="52.226210" lon="6.144907">
        <ele>6.408342</ele>
        <time>2026-08-02T22:59:26.291Z</time>
      </trkpt>
      <trkpt lat="52.226523" lon="6.144711">
        <ele>6.267723</ele>
        <time>2026-08-02T22:59:30.613Z</time>
      </trkpt>
      <trkpt lat="52.227997" lon="6.143519">
        <ele>5.812505</ele>
        <time>2026-08-02T22:59:53.593Z</time>
      </trkpt>
      <trkpt lat="52.228687" lon="6.143033">
        <ele>5.746609</ele>
        <time>2026-08-02T23:00:04.685Z</time>
      </trkpt>
      <trkpt lat="52.229142" lon="6.142788">
        <ele>5.723201</ele>
        <time>2026-08-02T23:00:11.747Z</time>
      </trkpt>
      <trkpt lat="52.230054" lon="6.142335">
        <ele>5.766700</ele>
        <time>2026-08-02T23:00:26.143Z</time>
      </trkpt>
      <trkpt lat="52.230272" lon="6.142278">
        <ele>5.776775</ele>
        <time>2026-08-02T23:00:29.458Z</time>
      </trkpt>
      <trkpt lat="52.230793" lon="6.142259">
        <ele>5.794902</ele>
        <time>2026-08-02T23:00:37.310Z</time>
      </trkpt>
      <trkpt lat="52.230596" lon="6.140670">
        <ele>5.684654</ele>
        <time>2026-08-02T23:00:51.973Z</time>
      </trkpt>
      <trkpt lat="52.230563" lon="6.140174">
        <ele>5.650726</ele>
        <time>2026-08-02T23:00:56.247Z</time>
      </trkpt>
      <trkpt lat="52.230559" lon="6.139646">
        <ele>5.614818</ele>
        <time>2026-08-02T23:01:00.771Z</time>
      </trkpt>
      <trkpt lat="52.230593" lon="6.139092">
        <ele>5.551470</ele>
        <time>2026-08-02T23:01:05.551Z</time>
      </trkpt>
      <trkpt lat="52.230665" lon="6.138216">
        <ele>5.422533</ele>
        <time>2026-08-02T23:01:13.013Z</time>
      </trkpt>
      <trkpt lat="52.230640" lon="6.137675">
        <ele>5.343387</ele>
        <time>2026-08-02T23:01:17.560Z</time>
      </trkpt>
      <trkpt lat="52.230481" lon="6.134962">
        <ele>5.144460</ele>
        <time>2026-08-02T23:01:41.285Z</time>
      </trkpt>
      <trkpt lat="52.230336" lon="6.133352">
        <ele>5.105937</ele>
        <time>2026-08-02T23:01:56.787Z</time>
      </trkpt>
      <trkpt lat="52.230300" lon="6.131986">
        <ele>5.019671</ele>
        <time>2026-08-02T23:02:08.968Z</time>
      </trkpt>
      <trkpt lat="52.230266" lon="6.131680">
        <ele>5.000049</ele>
        <time>2026-08-02T23:02:11.722Z</time>
      </trkpt>
      <trkpt lat="52.230209" lon="6.131302">
        <ele>4.975487</ele>
        <time>2026-08-02T23:02:15.111Z</time>
      </trkpt>
      <trkpt lat="52.230054" lon="6.130845">
        <ele>4.942527</ele>
        <time>2026-08-02T23:02:19.569Z</time>
      </trkpt>
      <trkpt lat="52.229987" lon="6.130530">
        <ele>4.910985</ele>
        <time>2026-08-02T23:02:22.357Z</time>
      </trkpt>
      <trkpt lat="52.229948" lon="6.130182">
        <ele>4.871762</ele>
        <time>2026-08-02T23:02:25.220Z</time>
      </trkpt>
      <trkpt lat="52.230010" lon="6.128620">
        <ele>4.698222</ele>
        <time>2026-08-02T23:02:38.650Z</time>
      </trkpt>
      <trkpt lat="52.230001" lon="6.128126">
        <ele>4.643429</ele>
        <time>2026-08-02T23:02:43.148Z</time>
      </trkpt>
      <trkpt lat="52.229973" lon="6.127881">
        <ele>4.615797</ele>
        <time>2026-08-02T23:02:45.430Z</time>
      </trkpt>
      <trkpt lat="52.229625" lon="6.126372">
        <ele>4.642016</ele>
        <time>2026-08-02T23:03:00.140Z</time>
      </trkpt>
      <trkpt lat="52.229581" lon="6.126205">
        <ele>4.645776</ele>
        <time>2026-08-02T23:03:01.822Z</time>
      </trkpt>
      <trkpt lat="52.229304" lon="6.125107">
        <ele>4.670341</ele>
        <time>2026-08-02T23:03:12.758Z</time>
      </trkpt>
      <trkpt lat="52.229194" lon="6.124538">
        <ele>4.654157</ele>
        <time>2026-08-02T23:03:18.236Z</time>
      </trkpt>
      <trkpt lat="52.228919" lon="6.122349">
        <ele>4.591891</ele>
        <time>2026-08-02T23:03:38.753Z</time>
      </trkpt>
      <trkpt lat="52.228752" lon="6.121346">
        <ele>4.531066</ele>
        <time>2026-08-02T23:03:47.299Z</time>
      </trkpt>
      <trkpt lat="52.228417" lon="6.119569">
        <ele>4.415214</ele>
        <time>2026-08-02T23:04:03.475Z</time>
      </trkpt>
      <trkpt lat="52.228370" lon="6.119282">
        <ele>4.439939</ele>
        <time>2026-08-02T23:04:07.239Z</time>
      </trkpt>
      <trkpt lat="52.228060" lon="6.116676">
        <ele>5.066991</ele>
        <time>2026-08-02T23:04:34.540Z</time>
      </trkpt>
      <trkpt lat="52.227921" lon="6.115234">
        <ele>5.403829</ele>
        <time>2026-08-02T23:04:48.930Z</time>
      </trkpt>
      <trkpt lat="52.227744" lon="6.113153">
        <ele>5.853961</ele>
        <time>2026-08-02T23:05:10.268Z</time>
      </trkpt>
      <trkpt lat="52.227448" lon="6.110487">
        <ele>6.199549</ele>
        <time>2026-08-02T23:05:36.678Z</time>
      </trkpt>
      <trkpt lat="52.227444" lon="6.110248">
        <ele>6.153721</ele>
        <time>2026-08-02T23:05:38.773Z</time>
      </trkpt>
      <trkpt lat="52.227370" lon="6.110235">
        <ele>6.130431</ele>
        <time>2026-08-02T23:05:39.832Z</time>
      </trkpt>
      <trkpt lat="52.227374" lon="6.110125">
        <ele>6.109309</ele>
        <time>2026-08-02T23:05:40.785Z</time>
      </trkpt>
      <trkpt lat="52.226972" lon="6.106592">
        <ele>5.438140</ele>
        <time>2026-08-02T23:06:10.123Z</time>
      </trkpt>
      <trkpt lat="52.226970" lon="6.106416">
        <ele>5.406632</ele>
        <time>2026-08-02T23:06:11.638Z</time>
      </trkpt>
      <trkpt lat="52.226969" lon="6.106376">
        <ele>5.399466</ele>
        <time>2026-08-02T23:06:11.981Z</time>
      </trkpt>
      <trkpt lat="52.226961" lon="6.106027">
        <ele>5.336955</ele>
        <time>2026-08-02T23:06:15.032Z</time>
      </trkpt>
      <trkpt lat="52.226878" lon="6.104040">
        <ele>5.073842</ele>
        <time>2026-08-02T23:06:32.787Z</time>
      </trkpt>
      <trkpt lat="52.226906" lon="6.103778">
        <ele>5.050857</ele>
        <time>2026-08-02T23:06:35.083Z</time>
      </trkpt>
      <trkpt lat="52.226933" lon="6.103583">
        <ele>5.033579</ele>
        <time>2026-08-02T23:06:36.811Z</time>
      </trkpt>
      <trkpt lat="52.226928" lon="6.103494">
        <ele>5.025855</ele>
        <time>2026-08-02T23:06:37.578Z</time>
      </trkpt>
      <trkpt lat="52.226879" lon="6.103500">
        <ele>5.018922</ele>
        <time>2026-08-02T23:06:38.276Z</time>
      </trkpt>
      <trkpt lat="52.226774" lon="6.103411">
        <ele>5.002229</ele>
        <time>2026-08-02T23:06:39.944Z</time>
      </trkpt>
      <trkpt lat="52.226707" lon="6.103410">
        <ele>4.992775</ele>
        <time>2026-08-02T23:06:40.875Z</time>
      </trkpt>
      <trkpt lat="52.226389" lon="6.103418">
        <ele>4.947902</ele>
        <time>2026-08-02T23:06:45.323Z</time>
      </trkpt>
      <trkpt lat="52.226276" lon="6.103173">
        <ele>4.921397</ele>
        <time>2026-08-02T23:06:47.938Z</time>
      </trkpt>
      <trkpt lat="52.226239" lon="6.103148">
        <ele>4.915747</ele>
        <time>2026-08-02T23:06:48.503Z</time>
      </trkpt>
      <trkpt lat="52.226218" lon="6.103149">
        <ele>4.912782</ele>
        <time>2026-08-02T23:06:48.910Z</time>
      </trkpt>
      <trkpt lat="52.226152" lon="6.103157">
        <ele>4.907239</ele>
        <time>2026-08-02T23:06:50.183Z</time>
      </trkpt>
      <trkpt lat="52.226134" lon="6.103160">
        <ele>4.907239</ele>
        <time>2026-08-02T23:06:50.533Z</time>
      </trkpt>
      <trkpt lat="52.226108" lon="6.103178">
        <ele>4.907239</ele>
        <time>2026-08-02T23:06:50.933Z</time>
      </trkpt>
      <trkpt lat="52.225951" lon="6.103446">
        <ele>4.907239</ele>
        <time>2026-08-02T23:06:54.172Z</time>
      </trkpt>
      <trkpt lat="52.226003" lon="6.103474">
        <ele>4.907239</ele>
        <time>2026-08-02T23:06:55.256Z</time>
      </trkpt>
      <trkpt lat="52.225951" lon="6.103446">
        <ele>4.907239</ele>
        <time>2026-08-02T23:06:56.337Z</time>
      </trkpt>
      <trkpt lat="52.225916" lon="6.103428">
        <ele>4.907239</ele>
        <time>2026-08-02T23:06:57.046Z</time>
      </trkpt>
      <trkpt lat="52.225671" lon="6.103301">
        <ele>4.907239</ele>
        <time>2026-08-02T23:07:02.101Z</time>
      </trkpt>
      <trkpt lat="52.225047" lon="6.102979">
        <ele>4.907239</ele>
        <time>2026-08-02T23:07:15.053Z</time>
      </trkpt>
      <trkpt lat="52.225299" lon="6.101679">
        <ele>4.907239</ele>
        <time>2026-08-02T23:07:31.586Z</time>
      </trkpt>
      <trkpt lat="52.225263" lon="6.101568">
        <ele>4.907239</ele>
        <time>2026-08-02T23:07:33.117Z</time>
      </trkpt>
      <trkpt lat="52.225190" lon="6.101529">
        <ele>4.907239</ele>
        <time>2026-08-02T23:07:34.616Z</time>
      </trkpt>
    </trkseg>
  </trk>
</gpx>